Time,TemperatureF,DewpointF,PressureIn,WindDirection,WindDirectionDegrees,WindSpeedMPH,WindSpeedGustMPH,Humidity,HourlyPrecipIn,Conditions,Clouds,dailyrainin,SoftwareType,DateUTC
2013-02-09 00:00:00,41.1,39.0,29.87,SE,128,0.0,0.0,92,0.00,,,0.26,VWS V14.01,2013-02-09 08:00:00,
2013-02-09 00:02:00,41.2,39.1,29.87,SE,129,0.0,0.0,92,0.00,,,0.00,VWS V14.01,2013-02-09 08:02:00,
2013-02-09 00:03:00,41.2,39.1,29.87,SE,128,0.0,0.0,92,0.00,,,0.00,VWS V14.01,2013-02-09 08:03:00,
2013-02-09 00:04:00,41.2,39.1,29.88,SE,128,0.0,0.0,92,0.00,,,0.00,VWS V14.01,2013-02-09 08:04:00,
2013-02-09 00:07:00,41.3,39.2,29.88,SE,128,0.0,0.0,92,0.00,,,0.00,VWS V14.01,2013-02-09 08:07:00,
2013-02-09 00:09:00,41.3,39.2,29.88,SE,129,0.0,0.0,92,0.00,,,0.00,VWS V14.01,2013-02-09 08:09:00,
2013-02-09 00:11:00,41.3,39.2,29.88,SE,128,0.0,0.0,92,0.00,,,0.00,VWS V14.01,2013-02-09 08:11:00,
2013-02-09 00:12:00,41.3,39.2,29.88,SE,128,0.0,0.0,92,0.00,,,0.00,VWS V14.01,2013-02-09 08:12:00,
2013-02-09 00:13:00,41.3,39.2,29.88,SE,128,0.0,0.0,92,0.00,,,0.00,VWS V14.01,2013-02-09 08:13:00,
2013-02-09 00:16:00,41.3,39.2,29.87,SE,128,0.0,0.0,92,0.00,,,0.00,VWS V14.01,2013-02-09 08:16:00,
2013-02-09 00:17:00,41.3,39.2,29.88,SE,128,0.0,0.0,92,0.00,,,0.00,VWS V14.01,2013-02-09 08:17:00,
2013-02-09 00:18:00,41.3,39.2,29.88,SE,128,0.0,0.0,92,0.00,,,0.00,VWS V14.01,2013-02-09 08:18:00,
2013-02-09 00:21:00,41.3,39.2,29.87,SE,128,0.0,0.0,92,0.00,,,0.00,VWS V14.01,2013-02-09 08:21:00,
2013-02-09 00:22:00,41.2,39.1,29.87,SE,129,0.0,0.0,92,0.00,,,0.00,VWS V14.01,2013-02-09 08:22:00,
2013-02-09 00:23:00,41.2,39.1,29.87,SE,128,0.0,0.0,92,0.00,,,0.00,VWS V14.01,2013-02-09 08:23:00,
2013-02-09 00:27:00,41.1,39.0,29.88,SE,129,0.0,0.0,92,0.00,,,0.00,VWS V14.01,2013-02-09 08:27:00,
2013-02-09 00:28:00,41.1,39.0,29.88,SE,129,0.0,0.0,92,0.00,,,0.00,VWS V14.01,2013-02-09 08:28:00,
2013-02-09 00:29:00,41.0,38.9,29.88,SE,129,0.0,0.0,92,0.00,,,0.00,VWS V14.01,2013-02-09 08:29:00,
2013-02-09 00:31:00,40.9,38.8,29.88,SE,128,0.0,0.0,92,0.00,,,0.00,VWS V14.01,2013-02-09 08:31:00,
2013-02-09 00:33:00,40.8,38.7,29.88,SE,128,0.0,0.0,92,0.00,,,0.00,VWS V14.01,2013-02-09 08:33:00,
2013-02-09 00:34:00,40.8,38.7,29.88,SE,128,0.0,0.0,92,0.00,,,0.00,VWS V14.01,2013-02-09 08:34:00,
2013-02-09 00:36:00,40.7,38.6,29.88,SE,128,0.0,0.0,92,0.00,,,0.00,VWS V14.01,2013-02-09 08:36:00,
2013-02-09 00:39:00,40.6,38.5,29.88,SE,128,0.0,0.0,92,0.00,,,0.00,VWS V14.01,2013-02-09 08:39:00,
2013-02-09 00:40:00,40.5,38.4,29.88,SE,128,0.0,0.0,92,0.00,,,0.00,VWS V14.01,2013-02-09 08:40:00,
2013-02-09 00:41:00,40.5,38.4,29.88,SE,128,0.0,0.0,92,0.00,,,0.00,VWS V14.01,2013-02-09 08:41:00,
2013-02-09 00:43:00,40.4,38.3,29.88,SE,129,0.0,0.0,92,0.00,,,0.00,VWS V14.01,2013-02-09 08:43:00,
2013-02-09 00:45:00,40.5,38.6,29.88,SE,128,0.0,0.0,93,0.00,,,0.00,VWS V14.01,2013-02-09 08:45:00,
2013-02-09 00:46:00,40.6,38.7,29.88,SE,129,0.0,0.0,93,0.00,,,0.00,VWS V14.01,2013-02-09 08:46:00,
2013-02-09 00:48:00,40.6,38.7,29.88,SE,129,0.0,0.0,93,0.00,,,0.00,VWS V14.01,2013-02-09 08:48:00,
2013-02-09 00:51:00,40.7,38.6,29.88,SE,128,0.0,0.0,92,0.00,,,0.00,VWS V14.01,2013-02-09 08:51:00,
2013-02-09 00:53:00,40.6,38.5,29.88,SE,128,0.0,0.0,92,0.00,,,0.00,VWS V14.01,2013-02-09 08:53:00,
2013-02-09 00:55:00,40.6,38.5,29.88,SE,128,0.0,0.0,92,0.00,,,0.00,VWS V14.01,2013-02-09 08:55:00,
2013-02-09 00:56:00,40.6,38.5,29.88,SE,129,0.0,0.0,92,0.00,,,0.00,VWS V14.01,2013-02-09 08:56:00,
2013-02-09 00:58:00,40.5,38.4,29.88,SE,128,0.0,0.0,92,0.00,,,0.00,VWS V14.01,2013-02-09 08:58:00,
2013-02-09 01:00:00,40.3,38.2,29.88,SE,129,0.0,0.0,92,0.00,,,0.00,VWS V14.01,2013-02-09 09:00:00,
2013-02-09 01:02:00,40.2,38.1,29.88,SE,124,0.0,0.0,92,0.00,,,0.00,VWS V14.01,2013-02-09 09:02:00,
2013-02-09 01:05:00,40.1,38.0,29.88,SE,124,0.0,0.0,92,0.00,,,0.00,VWS V14.01,2013-02-09 09:05:00,
2013-02-09 01:06:00,40.1,38.0,29.88,ESE,110,0.0,0.0,92,0.00,,,0.00,VWS V14.01,2013-02-09 09:06:00,
2013-02-09 01:07:00,40.1,38.2,29.88,ESE,110,0.0,0.0,93,0.00,,,0.00,VWS V14.01,2013-02-09 09:07:00,
2013-02-09 01:10:00,40.1,38.2,29.88,ESE,110,0.0,0.0,93,0.00,,,0.00,VWS V14.01,2013-02-09 09:10:00,
2013-02-09 01:12:00,40.1,38.2,29.88,ESE,110,0.0,0.0,93,0.00,,,0.00,VWS V14.01,2013-02-09 09:12:00,
2013-02-09 01:13:00,40.0,38.1,29.88,ESE,110,0.0,0.0,93,0.00,,,0.00,VWS V14.01,2013-02-09 09:13:00,
2013-02-09 01:16:00,40.1,38.2,29.88,ESE,110,0.0,0.0,93,0.00,,,0.00,VWS V14.01,2013-02-09 09:16:00,
2013-02-09 01:18:00,40.2,38.3,29.88,ESE,110,0.0,0.0,93,0.00,,,0.00,VWS V14.01,2013-02-09 09:18:00,
2013-02-09 01:19:00,40.2,38.3,29.88,ESE,110,0.0,0.0,93,0.00,,,0.00,VWS V14.01,2013-02-09 09:19:00,
2013-02-09 01:22:00,40.1,38.2,29.88,ESE,110,0.0,0.0,93,0.00,,,0.00,VWS V14.01,2013-02-09 09:22:00,
2013-02-09 01:25:00,40.0,38.1,29.88,ESE,110,0.0,0.0,93,0.00,,,0.00,VWS V14.01,2013-02-09 09:25:00,
2013-02-09 01:26:00,40.0,38.1,29.88,ESE,110,0.0,0.0,93,0.00,,,0.00,VWS V14.01,2013-02-09 09:26:00,
2013-02-09 01:30:00,39.9,38.0,29.88,ESE,110,0.0,0.0,93,0.00,,,0.00,VWS V14.01,2013-02-09 09:30:00,
2013-02-09 01:31:00,39.9,38.0,29.89,ESE,110,0.0,0.0,93,0.00,,,0.00,VWS V14.01,2013-02-09 09:31:00,
2013-02-09 01:32:00,39.9,38.0,29.88,ESE,110,0.0,0.0,93,0.00,,,0.00,VWS V14.01,2013-02-09 09:32:00,
2013-02-09 01:33:00,39.9,38.0,29.88,ESE,110,0.0,0.0,93,0.00,,,0.00,VWS V14.01,2013-02-09 09:33:00,
2013-02-09 01:37:00,39.8,38.0,29.88,ESE,110,0.0,0.0,93,0.00,,,0.00,VWS V14.01,2013-02-09 09:37:00,
2013-02-09 01:38:00,39.8,38.0,29.88,ESE,110,0.0,0.0,93,0.00,,,0.00,VWS V14.01,2013-02-09 09:38:00,
2013-02-09 01:39:00,39.8,38.0,29.88,ESE,110,0.0,0.0,93,0.00,,,0.00,VWS V14.01,2013-02-09 09:39:00,
2013-02-09 01:40:00,39.8,38.0,29.88,ESE,112,0.0,0.0,93,0.00,,,0.00,VWS V14.01,2013-02-09 09:40:00,
2013-02-09 01:43:00,39.8,38.0,29.88,ESE,112,0.0,0.0,93,0.00,,,0.00,VWS V14.01,2013-02-09 09:43:00,
2013-02-09 01:44:00,39.8,38.0,29.88,ESE,111,0.0,0.0,93,0.00,,,0.00,VWS V14.01,2013-02-09 09:44:00,
2013-02-09 01:45:00,39.8,38.0,29.88,ESE,111,0.0,0.0,93,0.00,,,0.00,VWS V14.01,2013-02-09 09:45:00,
2013-02-09 01:46:00,39.8,38.0,29.88,ESE,111,0.0,0.0,93,0.00,,,0.00,VWS V14.01,2013-02-09 09:46:00,
2013-02-09 01:50:00,39.8,38.0,29.88,ESE,112,0.0,0.0,93,0.00,,,0.00,VWS V14.01,2013-02-09 09:50:00,
2013-02-09 01:51:00,39.8,38.0,29.88,ESE,112,0.0,0.0,93,0.00,,,0.00,VWS V14.01,2013-02-09 09:51:00,
2013-02-09 01:53:00,39.8,38.0,29.88,ESE,111,0.0,0.0,93,0.00,,,0.00,VWS V14.01,2013-02-09 09:53:00,
2013-02-09 01:58:00,39.7,37.8,29.88,ESE,111,0.0,0.0,93,0.00,,,0.00,VWS V14.01,2013-02-09 09:58:00,
2013-02-09 01:59:00,39.7,37.8,29.88,ESE,112,0.0,0.0,93,0.00,,,0.00,VWS V14.01,2013-02-09 09:59:00,
2013-02-09 02:04:00,39.6,37.8,29.88,ESE,103,0.0,0.0,93,0.00,,,0.00,VWS V14.01,2013-02-09 10:04:00,
2013-02-09 02:05:00,39.6,37.8,29.88,ESE,103,0.0,0.0,93,0.00,,,0.00,VWS V14.01,2013-02-09 10:05:00,
2013-02-09 02:07:00,39.5,37.7,29.88,ESE,103,0.0,0.0,93,0.00,,,0.00,VWS V14.01,2013-02-09 10:07:00,
2013-02-09 02:09:00,39.4,37.5,29.88,ESE,103,0.0,0.0,93,0.00,,,0.00,VWS V14.01,2013-02-09 10:09:00,
2013-02-09 02:10:00,39.4,37.5,29.88,ESE,103,0.0,0.0,93,0.00,,,0.00,VWS V14.01,2013-02-09 10:10:00,
2013-02-09 02:13:00,39.3,37.5,29.89,ESE,103,0.0,0.0,93,0.00,,,0.00,VWS V14.01,2013-02-09 10:13:00,
2013-02-09 02:15:00,39.4,37.8,29.88,East,99,0.0,1.0,94,0.00,,,0.00,VWS V14.01,2013-02-09 10:15:00,
2013-02-09 02:16:00,39.4,37.8,29.88,ESE,102,0.0,0.0,94,0.00,,,0.00,VWS V14.01,2013-02-09 10:16:00,
2013-02-09 02:17:00,39.4,37.8,29.88,ESE,102,0.0,0.0,94,0.00,,,0.00,VWS V14.01,2013-02-09 10:17:00,
2013-02-09 02:18:00,39.3,37.5,29.88,East,101,0.0,0.0,93,0.00,,,0.00,VWS V14.01,2013-02-09 10:18:00,
2013-02-09 02:22:00,39.3,37.7,29.88,ESE,113,1.0,1.0,94,0.00,,,0.00,VWS V14.01,2013-02-09 10:22:00,
2013-02-09 02:23:00,39.3,37.7,29.88,ESE,113,0.0,1.0,94,0.00,,,0.00,VWS V14.01,2013-02-09 10:23:00,
2013-02-09 02:26:00,39.3,37.7,29.88,ESE,113,0.0,0.0,94,0.00,,,0.00,VWS V14.01,2013-02-09 10:26:00,
2013-02-09 02:27:00,39.3,37.7,29.89,ESE,113,0.0,0.0,94,0.00,,,0.00,VWS V14.01,2013-02-09 10:27:00,
2013-02-09 02:28:00,39.3,37.7,29.89,ESE,113,0.0,0.0,94,0.00,,,0.00,VWS V14.01,2013-02-09 10:28:00,
2013-02-09 02:29:00,39.2,37.3,29.88,ESE,113,0.0,0.0,93,0.00,,,0.00,VWS V14.01,2013-02-09 10:29:00,
2013-02-09 02:32:00,39.3,37.7,29.88,SE,130,0.0,1.0,94,0.00,,,0.00,VWS V14.01,2013-02-09 10:32:00,
2013-02-09 02:34:00,39.3,37.7,29.88,SE,130,0.0,0.0,94,0.00,,,0.00,VWS V14.01,2013-02-09 10:34:00,
2013-02-09 02:36:00,39.3,37.7,29.88,SE,130,0.0,0.0,94,0.00,,,0.00,VWS V14.01,2013-02-09 10:36:00,
2013-02-09 02:37:00,39.3,37.7,29.88,SE,124,0.0,0.0,94,0.00,,,0.00,VWS V14.01,2013-02-09 10:37:00,
2013-02-09 02:39:00,39.3,37.7,29.88,SE,124,0.0,0.0,94,0.00,,,0.00,VWS V14.01,2013-02-09 10:39:00,
2013-02-09 02:41:00,39.2,37.6,29.89,NNW,338,1.0,1.0,94,0.00,,,0.00,VWS V14.01,2013-02-09 10:41:00,
2013-02-09 02:42:00,39.2,37.6,29.89,NNW,338,0.0,1.0,94,0.00,,,0.00,VWS V14.01,2013-02-09 10:42:00,
2013-02-09 02:44:00,39.2,37.6,29.89,NNW,338,0.0,0.0,94,0.00,,,0.00,VWS V14.01,2013-02-09 10:44:00,
2013-02-09 02:45:00,39.3,37.7,29.89,NNW,338,1.0,1.0,94,0.00,,,0.00,VWS V14.01,2013-02-09 10:45:00,
2013-02-09 02:47:00,39.2,37.6,29.89,NW,323,0.0,0.0,94,0.00,,,0.00,VWS V14.01,2013-02-09 10:47:00,
2013-02-09 02:50:00,39.3,37.7,29.89,NW,324,0.0,0.0,94,0.00,,,0.00,VWS V14.01,2013-02-09 10:50:00,
2013-02-09 02:51:00,39.3,37.7,29.89,NW,325,0.0,0.0,94,0.00,,,0.00,VWS V14.01,2013-02-09 10:51:00,
2013-02-09 02:52:00,39.3,37.7,29.89,NW,323,0.0,0.0,94,0.00,,,0.00,VWS V14.01,2013-02-09 10:52:00,
2013-02-09 02:57:00,39.4,37.8,29.89,NW,323,0.0,0.0,94,0.00,,,0.00,VWS V14.01,2013-02-09 10:57:00,
2013-02-09 02:58:00,39.3,37.7,29.89,NW,324,0.0,0.0,94,0.00,,,0.00,VWS V14.01,2013-02-09 10:58:00,
2013-02-09 03:00:00,39.3,37.7,29.89,NW,323,0.0,0.0,94,0.00,,,0.00,VWS V14.01,2013-02-09 11:00:00,
2013-02-09 03:02:00,39.3,37.7,29.89,NW,326,0.0,0.0,94,0.00,,,0.00,VWS V14.01,2013-02-09 11:02:00,
2013-02-09 03:04:00,39.3,37.7,29.89,ENE,77,0.0,1.0,94,0.00,,,0.00,VWS V14.01,2013-02-09 11:04:00,
2013-02-09 03:06:00,39.2,37.6,29.89,ENE,77,0.0,0.0,94,0.00,,,0.00,VWS V14.01,2013-02-09 11:06:00,
2013-02-09 03:08:00,39.1,37.2,29.89,ENE,77,0.0,0.0,93,0.00,,,0.00,VWS V14.01,2013-02-09 11:08:00,
2013-02-09 03:09:00,39.1,37.2,29.89,ENE,78,0.0,0.0,93,0.00,,,0.00,VWS V14.01,2013-02-09 11:09:00,
2013-02-09 03:12:00,39.0,37.4,29.89,ENE,77,0.0,0.0,94,0.00,,,0.00,VWS V14.01,2013-02-09 11:12:00,
2013-02-09 03:13:00,39.0,37.4,29.89,ENE,77,0.0,0.0,94,0.00,,,0.00,VWS V14.01,2013-02-09 11:13:00,
2013-02-09 03:14:00,39.0,37.4,29.89,ENE,77,0.0,0.0,94,0.00,,,0.00,VWS V14.01,2013-02-09 11:14:00,
2013-02-09 03:17:00,38.9,37.3,29.89,ENE,77,0.0,0.0,94,0.00,,,0.00,VWS V14.01,2013-02-09 11:17:00,
2013-02-09 03:19:00,38.8,37.2,29.89,ENE,77,0.0,0.0,94,0.00,,,0.00,VWS V14.01,2013-02-09 11:19:00,
2013-02-09 03:22:00,38.7,37.1,29.89,ENE,78,0.0,0.0,94,0.00,,,0.00,VWS V14.01,2013-02-09 11:22:00,
2013-02-09 03:23:00,38.7,37.1,29.89,ENE,77,0.0,0.0,94,0.00,,,0.00,VWS V14.01,2013-02-09 11:23:00,
2013-02-09 03:25:00,38.6,37.0,29.89,ENE,77,0.0,0.0,94,0.00,,,0.00,VWS V14.01,2013-02-09 11:25:00,
2013-02-09 03:26:00,38.6,37.0,29.89,ENE,77,0.0,0.0,94,0.00,,,0.00,VWS V14.01,2013-02-09 11:26:00,
2013-02-09 03:28:00,38.6,37.0,29.89,ENE,77,0.0,0.0,94,0.00,,,0.00,VWS V14.01,2013-02-09 11:28:00,
2013-02-09 03:29:00,38.6,37.0,29.89,ENE,77,0.0,0.0,94,0.00,,,0.00,VWS V14.01,2013-02-09 11:29:00,
2013-02-09 03:33:00,38.6,37.0,29.89,ENE,77,0.0,0.0,94,0.00,,,0.00,VWS V14.01,2013-02-09 11:33:00,
2013-02-09 03:34:00,38.5,36.9,29.89,ENE,77,0.0,0.0,94,0.00,,,0.00,VWS V14.01,2013-02-09 11:34:00,
2013-02-09 03:38:00,38.5,36.9,29.89,ENE,78,0.0,0.0,94,0.00,,,0.00,VWS V14.01,2013-02-09 11:38:00,
2013-02-09 03:39:00,38.5,36.9,29.89,ENE,78,0.0,0.0,94,0.00,,,0.00,VWS V14.01,2013-02-09 11:39:00,
2013-02-09 03:42:00,38.5,36.9,29.89,ENE,77,0.0,0.0,94,0.00,,,0.00,VWS V14.01,2013-02-09 11:42:00,
2013-02-09 03:44:00,38.5,36.9,29.89,ENE,77,0.0,0.0,94,0.00,,,0.00,VWS V14.01,2013-02-09 11:44:00,
2013-02-09 03:45:00,38.4,36.8,29.89,ENE,77,0.0,0.0,94,0.00,,,0.00,VWS V14.01,2013-02-09 11:45:00,
2013-02-09 03:46:00,38.4,36.8,29.89,ENE,77,0.0,0.0,94,0.00,,,0.00,VWS V14.01,2013-02-09 11:46:00,
2013-02-09 03:50:00,38.3,36.7,29.89,East,94,0.0,0.0,94,0.00,,,0.00,VWS V14.01,2013-02-09 11:50:00,
2013-02-09 03:51:00,38.2,36.6,29.89,East,94,0.0,0.0,94,0.00,,,0.00,VWS V14.01,2013-02-09 11:51:00,
2013-02-09 03:56:00,38.1,36.5,29.89,East,94,0.0,0.0,94,0.00,,,0.00,VWS V14.01,2013-02-09 11:56:00,
2013-02-09 03:58:00,38.1,36.5,29.89,East,94,0.0,0.0,94,0.00,,,0.00,VWS V14.01,2013-02-09 11:58:00,
2013-02-09 03:59:00,38.1,36.5,29.89,East,94,0.0,0.0,94,0.00,,,0.00,VWS V14.01,2013-02-09 11:59:00,
2013-02-09 04:01:00,38.1,36.5,29.89,East,94,0.0,0.0,94,0.00,,,0.00,VWS V14.01,2013-02-09 12:01:00,
2013-02-09 04:03:00,38.2,36.6,29.89,East,94,0.0,0.0,94,0.00,,,0.00,VWS V14.01,2013-02-09 12:03:00,
2013-02-09 04:04:00,38.2,36.6,29.89,East,94,0.0,0.0,94,0.00,,,0.00,VWS V14.01,2013-02-09 12:04:00,
2013-02-09 04:05:00,38.2,36.6,29.89,East,94,0.0,0.0,94,0.00,,,0.00,VWS V14.01,2013-02-09 12:05:00,
2013-02-09 04:06:00,38.2,36.6,29.89,East,93,0.0,0.0,94,0.00,,,0.00,VWS V14.01,2013-02-09 12:06:00,
2013-02-09 04:10:00,38.2,36.6,29.89,East,93,0.0,0.0,94,0.00,,,0.00,VWS V14.01,2013-02-09 12:10:00,
2013-02-09 04:11:00,38.2,36.6,29.89,East,94,0.0,0.0,94,0.00,,,0.00,VWS V14.01,2013-02-09 12:11:00,
2013-02-09 04:12:00,38.2,36.6,29.89,East,94,0.0,0.0,94,0.00,,,0.00,VWS V14.01,2013-02-09 12:12:00,
2013-02-09 04:16:00,38.0,36.4,29.89,East,94,0.0,0.0,94,0.00,,,0.00,VWS V14.01,2013-02-09 12:16:00,
2013-02-09 04:17:00,37.9,36.3,29.90,East,94,0.0,0.0,94,0.00,,,0.00,VWS V14.01,2013-02-09 12:17:00,
2013-02-09 04:18:00,37.9,36.3,29.89,East,84,1.0,1.0,94,0.00,,,0.00,VWS V14.01,2013-02-09 12:18:00,
2013-02-09 04:19:00,37.9,36.3,29.90,East,83,0.0,1.0,94,0.00,,,0.00,VWS V14.01,2013-02-09 12:19:00,
2013-02-09 04:21:00,37.9,36.3,29.90,East,84,0.0,1.0,94,0.00,,,0.00,VWS V14.01,2013-02-09 12:21:00,
2013-02-09 04:23:00,37.9,36.3,29.90,East,83,0.0,0.0,94,0.00,,,0.00,VWS V14.01,2013-02-09 12:23:00,
2013-02-09 04:25:00,37.9,36.3,29.90,East,84,0.0,1.0,94,0.00,,,0.00,VWS V14.01,2013-02-09 12:25:00,
2013-02-09 04:26:00,37.9,36.3,29.90,East,84,1.0,1.0,94,0.00,,,0.00,VWS V14.01,2013-02-09 12:26:00,
2013-02-09 04:28:00,37.9,36.3,29.90,East,84,0.0,0.0,94,0.00,,,0.00,VWS V14.01,2013-02-09 12:28:00,
2013-02-09 04:30:00,37.8,36.2,29.90,East,91,1.0,1.0,94,0.00,,,0.00,VWS V14.01,2013-02-09 12:30:00,
2013-02-09 04:31:00,37.8,36.2,29.90,East,94,0.0,1.0,94,0.00,,,0.00,VWS V14.01,2013-02-09 12:31:00,
2013-02-09 04:33:00,37.8,36.2,29.90,East,95,0.0,0.0,94,0.00,,,0.00,VWS V14.01,2013-02-09 12:33:00,
2013-02-09 04:35:00,37.8,36.2,29.90,East,94,0.0,0.0,94,0.00,,,0.00,VWS V14.01,2013-02-09 12:35:00,
2013-02-09 04:36:00,37.7,36.1,29.90,East,94,0.0,0.0,94,0.00,,,0.00,VWS V14.01,2013-02-09 12:36:00,
2013-02-09 04:37:00,37.7,36.1,29.90,East,94,0.0,1.0,94,0.00,,,0.00,VWS V14.01,2013-02-09 12:37:00,
2013-02-09 04:39:00,37.7,36.1,29.90,East,98,0.0,0.0,94,0.00,,,0.00,VWS V14.01,2013-02-09 12:39:00,
2013-02-09 04:41:00,37.6,36.0,29.90,SE,124,0.0,0.0,94,0.00,,,0.00,VWS V14.01,2013-02-09 12:41:00,
2013-02-09 04:42:00,37.6,36.0,29.90,SE,124,0.0,1.0,94,0.00,,,0.00,VWS V14.01,2013-02-09 12:42:00,
2013-02-09 04:44:00,37.6,36.0,29.90,SE,124,0.0,0.0,94,0.00,,,0.00,VWS V14.01,2013-02-09 12:44:00,
2013-02-09 04:46:00,37.5,35.9,29.90,SE,124,0.0,0.0,94,0.00,,,0.00,VWS V14.01,2013-02-09 12:46:00,
2013-02-09 04:47:00,37.5,35.9,29.90,SE,124,0.0,0.0,94,0.00,,,0.00,VWS V14.01,2013-02-09 12:47:00,
2013-02-09 04:49:00,37.5,35.9,29.90,SE,124,0.0,0.0,94,0.00,,,0.00,VWS V14.01,2013-02-09 12:49:00,
2013-02-09 04:50:00,37.5,35.9,29.90,SE,124,0.0,0.0,94,0.00,,,0.00,VWS V14.01,2013-02-09 12:50:00,
2013-02-09 04:52:00,37.6,36.0,29.90,East,97,0.0,0.0,94,0.00,,,0.00,VWS V14.01,2013-02-09 12:52:00,
2013-02-09 04:54:00,37.6,36.0,29.90,East,90,1.0,1.0,94,0.00,,,0.00,VWS V14.01,2013-02-09 12:54:00,
2013-02-09 04:55:00,37.7,36.1,29.90,East,97,1.0,1.0,94,0.00,,,0.00,VWS V14.01,2013-02-09 12:55:00,
2013-02-09 04:59:00,37.8,36.5,29.90,East,91,0.0,1.0,95,0.00,,,0.00,VWS V14.01,2013-02-09 12:59:00,
2013-02-09 05:00:00,37.7,36.4,29.90,East,91,0.0,0.0,95,0.00,,,0.00,VWS V14.01,2013-02-09 13:00:00,
2013-02-09 05:02:00,37.7,36.1,29.90,East,91,0.0,0.0,94,0.00,,,0.00,VWS V14.01,2013-02-09 13:02:00,
2013-02-09 05:04:00,37.6,36.0,29.90,East,91,0.0,0.0,94,0.00,,,0.00,VWS V14.01,2013-02-09 13:04:00,
2013-02-09 05:05:00,37.5,35.9,29.90,East,92,0.0,0.0,94,0.00,,,0.00,VWS V14.01,2013-02-09 13:05:00,
2013-02-09 05:07:00,37.4,35.8,29.90,East,91,0.0,0.0,94,0.00,,,0.00,VWS V14.01,2013-02-09 13:07:00,
2013-02-09 05:08:00,37.4,35.8,29.90,East,91,0.0,0.0,94,0.00,,,0.00,VWS V14.01,2013-02-09 13:08:00,
2013-02-09 05:10:00,37.4,35.8,29.90,East,91,0.0,0.0,94,0.00,,,0.00,VWS V14.01,2013-02-09 13:10:00,
2013-02-09 05:12:00,37.4,35.8,29.90,East,91,0.0,0.0,94,0.00,,,0.00,VWS V14.01,2013-02-09 13:12:00,
2013-02-09 05:13:00,37.4,35.8,29.90,East,98,0.0,0.0,94,0.00,,,0.00,VWS V14.01,2013-02-09 13:13:00,
2013-02-09 05:15:00,37.3,35.7,29.90,East,100,0.0,0.0,94,0.00,,,0.00,VWS V14.01,2013-02-09 13:15:00,
2013-02-09 05:18:00,37.2,35.6,29.90,East,100,0.0,0.0,94,0.00,,,0.00,VWS V14.01,2013-02-09 13:18:00,
2013-02-09 05:19:00,37.2,35.6,29.90,ESE,119,0.0,1.0,94,0.00,,,0.00,VWS V14.01,2013-02-09 13:19:00,
2013-02-09 05:20:00,37.3,35.7,29.90,SE,132,1.0,1.0,94,0.00,,,0.00,VWS V14.01,2013-02-09 13:20:00,
2013-02-09 05:24:00,37.3,36.0,29.90,SE,132,0.0,0.0,95,0.00,,,0.00,VWS V14.01,2013-02-09 13:24:00,
2013-02-09 05:26:00,37.4,36.1,29.90,SE,132,0.0,0.0,95,0.00,,,0.00,VWS V14.01,2013-02-09 13:26:00,
2013-02-09 05:27:00,37.4,36.1,29.90,SE,132,0.0,1.0,95,0.00,,,0.00,VWS V14.01,2013-02-09 13:27:00,
2013-02-09 05:29:00,37.5,36.2,29.90,SE,136,1.0,1.0,95,0.00,,,0.00,VWS V14.01,2013-02-09 13:29:00,
2013-02-09 05:30:00,37.6,36.3,29.91,SE,138,0.0,1.0,95,0.00,,,0.00,VWS V14.01,2013-02-09 13:30:00,
2013-02-09 05:34:00,37.7,36.4,29.91,SE,136,0.0,0.0,95,0.00,,,0.00,VWS V14.01,2013-02-09 13:34:00,
2013-02-09 05:35:00,37.8,36.5,29.91,SE,134,0.0,0.0,95,0.00,,,0.00,VWS V14.01,2013-02-09 13:35:00,
2013-02-09 05:38:00,38.0,36.7,29.91,SE,127,0.0,0.0,95,0.00,,,0.00,VWS V14.01,2013-02-09 13:38:00,
2013-02-09 05:40:00,38.1,36.8,29.91,SE,127,0.0,0.0,95,0.00,,,0.00,VWS V14.01,2013-02-09 13:40:00,
2013-02-09 05:42:00,38.1,36.8,29.91,SE,127,0.0,0.0,95,0.00,,,0.00,VWS V14.01,2013-02-09 13:42:00,
2013-02-09 05:43:00,38.1,36.8,29.91,SE,127,0.0,0.0,95,0.00,,,0.00,VWS V14.01,2013-02-09 13:43:00,
2013-02-09 05:44:00,38.2,36.9,29.91,ESE,122,0.0,0.0,95,0.00,,,0.00,VWS V14.01,2013-02-09 13:44:00,
2013-02-09 05:47:00,38.1,36.8,29.91,SE,127,0.0,1.0,95,0.00,,,0.00,VWS V14.01,2013-02-09 13:47:00,
2013-02-09 05:49:00,38.1,36.8,29.91,ESE,122,1.0,1.0,95,0.00,,,0.00,VWS V14.01,2013-02-09 13:49:00,
2013-02-09 05:51:00,38.1,36.8,29.91,SE,124,0.0,1.0,95,0.00,,,0.00,VWS V14.01,2013-02-09 13:51:00,
2013-02-09 05:53:00,38.2,36.9,29.91,SE,128,0.0,0.0,95,0.00,,,0.00,VWS V14.01,2013-02-09 13:53:00,
2013-02-09 05:55:00,38.2,36.9,29.91,SE,128,0.0,1.0,95,0.00,,,0.00,VWS V14.01,2013-02-09 13:55:00,
2013-02-09 05:58:00,38.3,37.0,29.92,ESE,118,0.0,1.0,95,0.00,,,0.00,VWS V14.01,2013-02-09 13:58:00,
2013-02-09 05:59:00,38.3,37.0,29.92,ESE,117,0.0,1.0,95,0.00,,,0.00,VWS V14.01,2013-02-09 13:59:00,
2013-02-09 06:01:00,38.3,37.0,29.92,ESE,117,0.0,0.0,95,0.00,,,0.00,VWS V14.01,2013-02-09 14:01:00,
2013-02-09 06:03:00,38.3,37.0,29.92,ESE,117,0.0,0.0,95,0.00,,,0.00,VWS V14.01,2013-02-09 14:03:00,
2013-02-09 06:05:00,38.3,37.0,29.92,ESE,116,1.0,1.0,95,0.00,,,0.00,VWS V14.01,2013-02-09 14:05:00,
2013-02-09 06:06:00,38.3,37.0,29.92,ESE,116,0.0,1.0,95,0.00,,,0.00,VWS V14.01,2013-02-09 14:06:00,
2013-02-09 06:07:00,38.3,37.0,29.92,ESE,115,0.0,1.0,95,0.00,,,0.00,VWS V14.01,2013-02-09 14:07:00,
2013-02-09 06:08:00,38.2,36.6,29.92,ESE,115,0.0,1.0,94,0.00,,,0.00,VWS V14.01,2013-02-09 14:08:00,
2013-02-09 06:10:00,38.2,36.6,29.92,ESE,115,0.0,0.0,94,0.00,,,0.00,VWS V14.01,2013-02-09 14:10:00,
2013-02-09 06:13:00,38.1,36.5,29.92,ESE,116,0.0,0.0,94,0.00,,,0.00,VWS V14.01,2013-02-09 14:13:00,
2013-02-09 06:15:00,38.1,36.5,29.92,ESE,116,0.0,0.0,94,0.00,,,0.00,VWS V14.01,2013-02-09 14:15:00,
2013-02-09 06:16:00,38.0,36.4,29.92,ESE,115,0.0,0.0,94,0.00,,,0.00,VWS V14.01,2013-02-09 14:16:00,
2013-02-09 06:18:00,38.0,36.4,29.92,ESE,115,0.0,0.0,94,0.00,,,0.00,VWS V14.01,2013-02-09 14:18:00,
2013-02-09 06:21:00,38.0,36.4,29.92,ESE,115,0.0,0.0,94,0.00,,,0.00,VWS V14.01,2013-02-09 14:21:00,
2013-02-09 06:22:00,38.0,36.4,29.92,ESE,115,0.0,0.0,94,0.00,,,0.00,VWS V14.01,2013-02-09 14:22:00,
2013-02-09 06:23:00,38.0,36.4,29.92,ESE,115,0.0,0.0,94,0.00,,,0.00,VWS V14.01,2013-02-09 14:23:00,
2013-02-09 06:24:00,38.0,36.4,29.92,ESE,115,0.0,0.0,94,0.00,,,0.00,VWS V14.01,2013-02-09 14:24:00,
2013-02-09 06:27:00,37.8,36.2,29.92,ESE,116,0.0,0.0,94,0.00,,,0.00,VWS V14.01,2013-02-09 14:27:00,
2013-02-09 06:29:00,37.7,36.1,29.92,ESE,115,0.0,0.0,94,0.00,,,0.00,VWS V14.01,2013-02-09 14:29:00,
2013-02-09 06:32:00,37.7,36.1,29.92,ESE,115,0.0,0.0,94,0.00,,,0.00,VWS V14.01,2013-02-09 14:32:00,
2013-02-09 06:35:00,37.7,36.4,29.92,ESE,116,0.0,0.0,95,0.00,,,0.00,VWS V14.01,2013-02-09 14:35:00,
2013-02-09 06:36:00,37.7,36.1,29.93,ESE,115,0.0,0.0,94,0.00,,,0.00,VWS V14.01,2013-02-09 14:36:00,
2013-02-09 06:39:00,37.7,36.1,29.93,ESE,115,0.0,0.0,94,0.00,,,0.00,VWS V14.01,2013-02-09 14:39:00,
2013-02-09 06:40:00,37.7,36.1,29.93,ESE,115,0.0,0.0,94,0.00,,,0.00,VWS V14.01,2013-02-09 14:40:00,
2013-02-09 06:41:00,37.7,36.1,29.93,ESE,116,0.0,0.0,94,0.00,,,0.00,VWS V14.01,2013-02-09 14:41:00,
2013-02-09 06:42:00,37.6,36.0,29.93,ESE,116,0.0,0.0,94,0.00,,,0.00,VWS V14.01,2013-02-09 14:42:00,
2013-02-09 06:44:00,37.5,35.9,29.93,ESE,115,0.0,0.0,94,0.00,,,0.00,VWS V14.01,2013-02-09 14:44:00,
2013-02-09 06:46:00,37.5,35.9,29.93,ESE,115,0.0,0.0,94,0.01,,,0.01,VWS V14.01,2013-02-09 14:46:00,
2013-02-09 06:48:00,37.4,35.8,29.93,ESE,113,1.0,1.0,94,0.01,,,0.01,VWS V14.01,2013-02-09 14:48:00,
2013-02-09 06:51:00,37.5,35.9,29.93,ESE,115,1.0,1.0,94,0.01,,,0.01,VWS V14.01,2013-02-09 14:51:00,
2013-02-09 06:52:00,37.5,35.9,29.93,ESE,115,0.0,1.0,94,0.01,,,0.01,VWS V14.01,2013-02-09 14:52:00,
2013-02-09 06:54:00,37.6,36.3,29.93,ESE,116,0.0,0.0,95,0.01,,,0.01,VWS V14.01,2013-02-09 14:54:00,
2013-02-09 06:57:00,37.8,36.5,29.93,ESE,115,0.0,0.0,95,0.01,,,0.01,VWS V14.01,2013-02-09 14:57:00,
2013-02-09 07:01:00,38.3,37.0,29.93,ESE,115,0.0,1.0,95,0.01,,,0.01,VWS V14.01,2013-02-09 15:01:00,
2013-02-09 07:03:00,38.5,37.2,29.94,ESE,116,0.0,1.0,95,0.01,,,0.01,VWS V14.01,2013-02-09 15:03:00,
2013-02-09 07:04:00,38.6,37.3,29.94,ESE,115,0.0,0.0,95,0.01,,,0.01,VWS V14.01,2013-02-09 15:04:00,
2013-02-09 07:06:00,38.9,37.6,29.94,ESE,122,0.0,1.0,95,0.01,,,0.01,VWS V14.01,2013-02-09 15:06:00,
2013-02-09 07:11:00,39.3,38.0,29.94,ESE,121,0.0,0.0,95,0.01,,,0.01,VWS V14.01,2013-02-09 15:11:00,
2013-02-09 07:14:00,39.7,38.4,29.94,ESE,121,0.0,0.0,95,0.01,,,0.01,VWS V14.01,2013-02-09 15:14:00,
2013-02-09 07:16:00,39.9,38.6,29.95,ESE,121,0.0,0.0,95,0.01,,,0.01,VWS V14.01,2013-02-09 15:16:00,
2013-02-09 07:20:00,40.3,39.0,29.95,ESE,121,0.0,0.0,95,0.01,,,0.01,VWS V14.01,2013-02-09 15:20:00,
2013-02-09 07:21:00,40.5,39.2,29.95,ESE,121,0.0,0.0,95,0.01,,,0.01,VWS V14.01,2013-02-09 15:21:00,
2013-02-09 07:23:00,40.7,39.1,29.95,ESE,121,0.0,0.0,94,0.01,,,0.01,VWS V14.01,2013-02-09 15:23:00,
2013-02-09 07:26:00,41.0,39.4,29.95,ESE,121,0.0,0.0,94,0.01,,,0.01,VWS V14.01,2013-02-09 15:26:00,
2013-02-09 07:27:00,41.1,39.5,29.96,ESE,121,0.0,0.0,94,0.01,,,0.01,VWS V14.01,2013-02-09 15:27:00,
2013-02-09 07:29:00,41.3,39.7,29.96,SSE,148,0.0,0.0,94,0.01,,,0.01,VWS V14.01,2013-02-09 15:29:00,
2013-02-09 07:31:00,41.5,39.9,29.96,SSE,148,0.0,0.0,94,0.01,,,0.01,VWS V14.01,2013-02-09 15:31:00,
2013-02-09 07:33:00,41.6,39.7,29.96,SE,128,1.0,1.0,93,0.01,,,0.01,VWS V14.01,2013-02-09 15:33:00,
2013-02-09 07:34:00,41.7,39.8,29.96,ESE,122,0.0,1.0,93,0.01,,,0.01,VWS V14.01,2013-02-09 15:34:00,
2013-02-09 07:36:00,41.9,40.0,29.96,SE,124,0.0,0.0,93,0.01,,,0.01,VWS V14.01,2013-02-09 15:36:00,
2013-02-09 07:39:00,42.2,40.3,29.96,ESE,121,1.0,1.0,93,0.01,,,0.01,VWS V14.01,2013-02-09 15:39:00,
2013-02-09 07:40:00,42.3,40.4,29.96,ESE,122,0.0,1.0,93,0.01,,,0.01,VWS V14.01,2013-02-09 15:40:00,
2013-02-09 07:42:00,42.5,40.6,29.96,SE,124,1.0,1.0,93,0.01,,,0.01,VWS V14.01,2013-02-09 15:42:00,
2013-02-09 07:45:00,42.8,40.6,29.96,ESE,118,1.0,2.0,92,0.01,,,0.01,VWS V14.01,2013-02-09 15:45:00,
2013-02-09 07:46:00,42.8,40.6,29.96,ESE,122,0.0,1.0,92,0.00,,,0.01,VWS V14.01,2013-02-09 15:46:00,
2013-02-09 07:47:00,42.9,40.7,29.96,SE,144,1.0,1.0,92,0.00,,,0.01,VWS V14.01,2013-02-09 15:47:00,
2013-02-09 07:50:00,43.1,40.7,29.96,SE,136,1.0,2.0,91,0.00,,,0.01,VWS V14.01,2013-02-09 15:50:00,
2013-02-09 07:52:00,43.3,40.6,29.96,SE,136,1.0,2.0,90,0.00,,,0.01,VWS V14.01,2013-02-09 15:52:00,
2013-02-09 07:55:00,43.6,40.9,29.96,ESE,113,1.0,1.0,90,0.00,,,0.01,VWS V14.01,2013-02-09 15:55:00,
2013-02-09 07:57:00,43.8,41.1,29.97,SE,124,0.0,1.0,90,0.00,,,0.01,VWS V14.01,2013-02-09 15:57:00,
2013-02-09 07:59:00,44.1,41.4,29.97,SE,124,0.0,0.0,90,0.00,,,0.01,VWS V14.01,2013-02-09 15:59:00,
2013-02-09 08:01:00,44.3,41.3,29.97,SE,131,0.0,0.0,89,0.00,,,0.01,VWS V14.01,2013-02-09 16:01:00,
2013-02-09 08:04:00,44.5,41.2,29.97,ESE,111,0.0,0.0,88,0.00,,,0.01,VWS V14.01,2013-02-09 16:04:00,
2013-02-09 08:05:00,44.6,41.3,29.97,East,98,0.0,0.0,88,0.00,,,0.01,VWS V14.01,2013-02-09 16:05:00,
2013-02-09 08:06:00,44.7,41.4,29.97,ESE,104,0.0,0.0,88,0.00,,,0.01,VWS V14.01,2013-02-09 16:06:00,
2013-02-09 08:10:00,45.1,41.5,29.97,ESE,111,0.0,0.0,87,0.00,,,0.01,VWS V14.01,2013-02-09 16:10:00,
2013-02-09 08:11:00,45.1,41.2,29.97,East,88,0.0,0.0,86,0.00,,,0.01,VWS V14.01,2013-02-09 16:11:00,
2013-02-09 08:12:00,45.2,41.3,29.97,SE,124,0.0,1.0,86,0.00,,,0.01,VWS V14.01,2013-02-09 16:12:00,
2013-02-09 08:15:00,45.4,41.5,29.98,ESE,120,1.0,2.0,86,0.00,,,0.01,VWS V14.01,2013-02-09 16:15:00,
2013-02-09 08:16:00,45.5,41.6,29.97,SE,134,1.0,2.0,86,0.00,,,0.01,VWS V14.01,2013-02-09 16:16:00,
2013-02-09 08:17:00,45.6,41.7,29.98,SE,124,1.0,2.0,86,0.00,,,0.01,VWS V14.01,2013-02-09 16:17:00,
2013-02-09 08:20:00,45.8,41.5,29.98,ESE,115,2.0,2.0,85,0.00,,,0.01,VWS V14.01,2013-02-09 16:20:00,
2013-02-09 08:21:00,45.9,41.7,29.98,East,91,0.0,2.0,85,0.00,,,0.01,VWS V14.01,2013-02-09 16:21:00,
2013-02-09 08:22:00,45.9,41.3,29.98,SE,126,3.0,3.0,84,0.00,,,0.01,VWS V14.01,2013-02-09 16:22:00,
2013-02-09 08:26:00,46.2,41.6,29.98,East,84,2.0,2.0,84,0.00,,,0.01,VWS V14.01,2013-02-09 16:26:00,
2013-02-09 08:27:00,46.3,41.7,29.98,East,80,2.0,3.0,84,0.00,,,0.01,VWS V14.01,2013-02-09 16:27:00,
2013-02-09 08:28:00,46.3,41.4,29.98,ENE,78,3.0,4.0,83,0.00,,,0.01,VWS V14.01,2013-02-09 16:28:00,
2013-02-09 08:29:00,46.2,41.3,29.98,East,87,2.0,3.0,83,0.00,,,0.01,VWS V14.01,2013-02-09 16:29:00,
2013-02-09 08:31:00,46.3,41.4,29.98,ENE,70,4.0,4.0,83,0.00,,,0.01,VWS V14.01,2013-02-09 16:31:00,
2013-02-09 08:33:00,46.3,41.4,29.98,East,94,2.0,3.0,83,0.00,,,0.01,VWS V14.01,2013-02-09 16:33:00,
2013-02-09 08:35:00,46.4,41.5,29.98,SE,132,3.0,3.0,83,0.00,,,0.01,VWS V14.01,2013-02-09 16:35:00,
2013-02-09 08:36:00,46.4,41.5,29.98,East,100,2.0,3.0,83,0.00,,,0.01,VWS V14.01,2013-02-09 16:36:00,
2013-02-09 08:38:00,46.6,41.4,29.98,ESE,121,1.0,4.0,82,0.00,,,0.01,VWS V14.01,2013-02-09 16:38:00,
2013-02-09 08:40:00,46.7,41.5,29.98,East,97,1.0,3.0,82,0.00,,,0.01,VWS V14.01,2013-02-09 16:40:00,
2013-02-09 08:42:00,46.9,41.4,29.98,ESE,110,3.0,3.0,81,0.00,,,0.01,VWS V14.01,2013-02-09 16:42:00,
2013-02-09 08:44:00,47.0,41.5,29.98,East,96,2.0,3.0,81,0.00,,,0.01,VWS V14.01,2013-02-09 16:44:00,
2013-02-09 08:46:00,47.3,41.8,29.98,East,79,1.0,2.0,81,0.00,,,0.01,VWS V14.01,2013-02-09 16:46:00,
2013-02-09 08:49:00,47.5,41.7,29.99,ENE,77,2.0,4.0,80,0.00,,,0.01,VWS V14.01,2013-02-09 16:49:00,
2013-02-09 08:51:00,47.5,41.3,29.99,ESE,110,1.0,2.0,79,0.00,,,0.01,VWS V14.01,2013-02-09 16:51:00,
2013-02-09 08:53:00,47.7,41.8,29.99,ESE,120,0.0,2.0,80,0.00,,,0.01,VWS V14.01,2013-02-09 16:53:00,
2013-02-09 08:55:00,48.2,42.3,29.99,ESE,103,1.0,4.0,80,0.00,,,0.01,VWS V14.01,2013-02-09 16:55:00,
2013-02-09 08:56:00,48.3,42.1,29.99,ENE,65,1.0,3.0,79,0.00,,,0.01,VWS V14.01,2013-02-09 16:56:00,
2013-02-09 08:58:00,48.4,41.9,29.99,SE,133,1.0,2.0,78,0.00,,,0.01,VWS V14.01,2013-02-09 16:58:00,
2013-02-09 08:59:00,48.5,42.0,29.99,NE,36,4.0,4.0,78,0.00,,,0.01,VWS V14.01,2013-02-09 16:59:00,
2013-02-09 09:02:00,48.4,41.5,29.99,East,98,2.0,2.0,77,0.00,,,0.01,VWS V14.01,2013-02-09 17:02:00,
2013-02-09 09:04:00,48.7,42.2,29.99,SE,129,1.0,2.0,78,0.00,,,0.01,VWS V14.01,2013-02-09 17:04:00,
2013-02-09 09:06:00,48.8,41.6,29.99,SSE,158,1.0,1.0,76,0.00,,,0.01,VWS V14.01,2013-02-09 17:06:00,
2013-02-09 09:08:00,49.0,41.8,29.99,ESE,103,2.0,3.0,76,0.00,,,0.01,VWS V14.01,2013-02-09 17:08:00,
2013-02-09 09:09:00,49.1,41.9,29.99,East,95,3.0,3.0,76,0.00,,,0.01,VWS V14.01,2013-02-09 17:09:00,
2013-02-09 09:12:00,49.2,41.3,29.99,East,83,2.0,2.0,74,0.00,,,0.01,VWS V14.01,2013-02-09 17:12:00,
2013-02-09 09:13:00,49.1,41.2,29.99,ESE,108,3.0,4.0,74,0.00,,,0.01,VWS V14.01,2013-02-09 17:13:00,
2013-02-09 09:14:00,49.2,41.6,29.99,SE,139,2.0,3.0,75,0.00,,,0.01,VWS V14.01,2013-02-09 17:14:00,
2013-02-09 09:17:00,49.2,40.9,29.99,SE,143,2.0,3.0,73,0.00,,,0.01,VWS V14.01,2013-02-09 17:17:00,
2013-02-09 09:18:00,49.3,41.4,29.99,SE,142,3.0,3.0,74,0.00,,,0.01,VWS V14.01,2013-02-09 17:18:00,
2013-02-09 09:19:00,49.3,40.7,29.99,SSE,155,2.0,3.0,72,0.00,,,0.01,VWS V14.01,2013-02-09 17:19:00,
2013-02-09 09:22:00,49.3,40.7,29.99,ESE,122,2.0,4.0,72,0.00,,,0.01,VWS V14.01,2013-02-09 17:22:00,
2013-02-09 09:23:00,49.4,41.1,29.99,SSE,148,2.0,4.0,73,0.00,,,0.01,VWS V14.01,2013-02-09 17:23:00,
2013-02-09 09:24:00,49.5,41.2,29.99,SE,142,4.0,4.0,73,0.00,,,0.01,VWS V14.01,2013-02-09 17:24:00,
2013-02-09 09:27:00,49.6,41.3,29.99,East,86,5.0,5.0,73,0.00,,,0.01,VWS V14.01,2013-02-09 17:27:00,
2013-02-09 09:29:00,49.6,41.3,29.99,ESE,103,4.0,5.0,73,0.00,,,0.01,VWS V14.01,2013-02-09 17:29:00,
2013-02-09 09:32:00,49.5,40.9,29.99,ENE,76,4.0,4.0,72,0.00,,,0.01,VWS V14.01,2013-02-09 17:32:00,
2013-02-09 09:34:00,49.5,40.5,29.99,ESE,105,2.0,3.0,71,0.00,,,0.01,VWS V14.01,2013-02-09 17:34:00,
2013-02-09 09:38:00,49.8,40.8,29.99,ESE,122,3.0,7.0,71,0.00,,,0.01,VWS V14.01,2013-02-09 17:38:00,
2013-02-09 09:39:00,49.8,40.4,29.99,SSE,153,1.0,4.0,70,0.00,,,0.01,VWS V14.01,2013-02-09 17:39:00,
2013-02-09 09:42:00,49.8,39.3,30.00,ESE,120,2.0,3.0,67,0.00,,,0.01,VWS V14.01,2013-02-09 17:42:00,
2013-02-09 09:43:00,49.8,39.3,30.00,South,191,1.0,3.0,67,0.00,,,0.01,VWS V14.01,2013-02-09 17:43:00,
2013-02-09 09:45:00,49.9,39.4,30.00,East,98,2.0,3.0,67,0.00,,,0.01,VWS V14.01,2013-02-09 17:45:00,
2013-02-09 09:49:00,50.0,40.2,30.00,ENE,68,3.0,6.0,69,0.00,,,0.01,VWS V14.01,2013-02-09 17:49:00,
2013-02-09 09:51:00,50.0,40.2,30.00,ESE,122,1.0,2.0,69,0.00,,,0.01,VWS V14.01,2013-02-09 17:51:00,
2013-02-09 09:52:00,50.1,40.3,30.00,ESE,103,2.0,4.0,69,0.00,,,0.01,VWS V14.01,2013-02-09 17:52:00,
2013-02-09 09:53:00,50.2,40.4,30.00,ESE,110,2.0,4.0,69,0.00,,,0.01,VWS V14.01,2013-02-09 17:53:00,
2013-02-09 09:54:00,50.3,40.5,30.00,ESE,112,1.0,3.0,69,0.00,,,0.01,VWS V14.01,2013-02-09 17:54:00,
2013-02-09 09:58:00,50.3,40.2,30.00,NE,38,0.0,1.0,68,0.00,,,0.01,VWS V14.01,2013-02-09 17:58:00,
2013-02-09 09:59:00,50.5,40.7,30.00,East,98,3.0,3.0,69,0.00,,,0.01,VWS V14.01,2013-02-09 17:59:00,
2013-02-09 10:00:00,50.5,40.7,30.00,ESE,103,6.0,7.0,69,0.00,,,0.01,VWS V14.01,2013-02-09 18:00:00,
2013-02-09 10:03:00,50.9,41.5,30.00,SSE,159,1.0,2.0,70,0.00,,,0.01,VWS V14.01,2013-02-09 18:03:00,
2013-02-09 10:05:00,51.2,41.8,30.00,ESE,117,5.0,5.0,70,0.00,,,0.01,VWS V14.01,2013-02-09 18:05:00,
2013-02-09 10:10:00,51.3,41.1,30.00,East,88,2.0,2.0,68,0.00,,,0.01,VWS V14.01,2013-02-09 18:10:00,
2013-02-09 10:11:00,51.4,41.6,30.00,NNE,26,0.0,2.0,69,0.00,,,0.01,VWS V14.01,2013-02-09 18:11:00,
2013-02-09 10:13:00,51.6,42.2,30.00,ENE,78,2.0,3.0,70,0.00,,,0.01,VWS V14.01,2013-02-09 18:13:00,
2013-02-09 10:16:00,51.8,42.3,30.00,ESE,120,2.0,2.0,70,0.00,,,0.01,VWS V14.01,2013-02-09 18:16:00,
2013-02-09 10:18:00,51.8,42.3,30.00,ESE,117,0.0,0.0,70,0.00,,,0.01,VWS V14.01,2013-02-09 18:18:00,
2013-02-09 10:21:00,52.1,42.2,30.00,SSE,158,4.0,5.0,69,0.00,,,0.01,VWS V14.01,2013-02-09 18:21:00,
2013-02-09 10:22:00,52.1,41.9,30.00,SE,136,2.0,4.0,68,0.00,,,0.01,VWS V14.01,2013-02-09 18:22:00,
2013-02-09 10:26:00,52.4,42.2,30.00,NNW,329,3.0,5.0,68,0.00,,,0.01,VWS V14.01,2013-02-09 18:26:00,
2013-02-09 10:27:00,52.5,42.3,30.00,North,8,3.0,5.0,68,0.00,,,0.01,VWS V14.01,2013-02-09 18:27:00,
2013-02-09 10:29:00,52.5,41.9,30.00,NW,319,3.0,3.0,67,0.00,,,0.01,VWS V14.01,2013-02-09 18:29:00,
2013-02-09 10:32:00,52.3,41.7,30.00,NNE,18,1.0,2.0,67,0.00,,,0.01,VWS V14.01,2013-02-09 18:32:00,
2013-02-09 10:33:00,52.3,41.7,30.00,East,98,1.0,2.0,67,0.00,,,0.01,VWS V14.01,2013-02-09 18:33:00,
2013-02-09 10:37:00,52.6,42.3,30.00,SSE,148,1.0,3.0,68,0.00,,,0.01,VWS V14.01,2013-02-09 18:37:00,
2013-02-09 10:38:00,52.6,42.3,30.00,ENE,61,3.0,4.0,68,0.00,,,0.01,VWS V14.01,2013-02-09 18:38:00,
2013-02-09 10:39:00,52.5,41.9,30.00,ENE,60,3.0,4.0,67,0.00,,,0.01,VWS V14.01,2013-02-09 18:39:00,
2013-02-09 10:42:00,52.2,42.0,30.00,East,93,3.0,3.0,68,0.00,,,0.01,VWS V14.01,2013-02-09 18:42:00,
2013-02-09 10:43:00,52.2,42.0,30.00,SE,127,3.0,4.0,68,0.00,,,0.01,VWS V14.01,2013-02-09 18:43:00,
2013-02-09 10:44:00,52.3,41.7,30.00,East,98,2.0,5.0,67,0.00,,,0.01,VWS V14.01,2013-02-09 18:44:00,
2013-02-09 10:48:00,52.4,42.2,30.00,SE,138,0.0,2.0,68,0.00,,,0.01,VWS V14.01,2013-02-09 18:48:00,
2013-02-09 10:50:00,52.8,42.5,30.00,ESE,121,4.0,4.0,68,0.00,,,0.01,VWS V14.01,2013-02-09 18:50:00,
2013-02-09 10:51:00,52.9,41.9,30.00,East,94,1.0,4.0,66,0.00,,,0.01,VWS V14.01,2013-02-09 18:51:00,
2013-02-09 10:54:00,52.9,41.9,30.00,SSW,204,1.0,3.0,66,0.00,,,0.01,VWS V14.01,2013-02-09 18:54:00,
2013-02-09 10:55:00,52.9,41.5,30.00,SW,228,2.0,6.0,65,0.00,,,0.01,VWS V14.01,2013-02-09 18:55:00,
2013-02-09 10:59:00,52.7,40.1,30.00,WNW,298,1.0,5.0,62,0.00,,,0.01,VWS V14.01,2013-02-09 18:59:00,
2013-02-09 11:00:00,52.7,40.5,30.00,West,274,0.0,0.0,63,0.00,,,0.01,VWS V14.01,2013-02-09 19:00:00,
2013-02-09 11:01:00,52.7,40.5,30.00,NW,314,1.0,2.0,63,0.00,,,0.01,VWS V14.01,2013-02-09 19:01:00,
2013-02-09 11:05:00,52.7,39.6,30.00,North,4,0.0,2.0,61,0.00,,,0.01,VWS V14.01,2013-02-09 19:05:00,
2013-02-09 11:06:00,52.8,39.7,30.00,SSE,150,0.0,0.0,61,0.00,,,0.01,VWS V14.01,2013-02-09 19:06:00,
2013-02-09 11:08:00,52.9,40.2,30.00,West,269,0.0,1.0,62,0.00,,,0.01,VWS V14.01,2013-02-09 19:08:00,
2013-02-09 11:10:00,53.0,40.3,30.00,NNW,337,1.0,3.0,62,0.00,,,0.01,VWS V14.01,2013-02-09 19:10:00,
2013-02-09 11:11:00,53.0,40.3,30.00,NNW,333,1.0,1.0,62,0.00,,,0.01,VWS V14.01,2013-02-09 19:11:00,
2013-02-09 11:13:00,52.9,41.1,30.00,WSW,240,0.0,0.0,64,0.00,,,0.01,VWS V14.01,2013-02-09 19:13:00,
2013-02-09 11:16:00,53.0,41.2,30.00,SE,124,2.0,2.0,64,0.00,,,0.01,VWS V14.01,2013-02-09 19:16:00,
2013-02-09 11:17:00,53.0,40.8,30.00,ESE,103,2.0,2.0,63,0.00,,,0.01,VWS V14.01,2013-02-09 19:17:00,
2013-02-09 11:19:00,53.2,41.0,30.00,South,186,3.0,4.0,63,0.00,,,0.01,VWS V14.01,2013-02-09 19:19:00,
2013-02-09 11:21:00,53.5,41.2,30.00,SW,232,0.0,3.0,63,0.00,,,0.01,VWS V14.01,2013-02-09 19:21:00,
2013-02-09 11:24:00,53.8,40.7,30.00,West,271,2.0,4.0,61,0.00,,,0.01,VWS V14.01,2013-02-09 19:24:00,
2013-02-09 11:25:00,53.9,40.8,30.00,West,276,2.0,3.0,61,0.00,,,0.01,VWS V14.01,2013-02-09 19:25:00,
2013-02-09 11:28:00,54.2,40.6,30.00,NNE,16,1.0,3.0,60,0.00,,,0.01,VWS V14.01,2013-02-09 19:28:00,
2013-02-09 11:29:00,54.3,41.2,30.00,NNE,23,1.0,1.0,61,0.00,,,0.01,VWS V14.01,2013-02-09 19:29:00,
2013-02-09 11:30:00,54.4,41.2,30.00,NNE,23,0.0,1.0,61,0.00,,,0.01,VWS V14.01,2013-02-09 19:30:00,
2013-02-09 11:34:00,54.8,40.3,30.00,ESE,122,0.0,1.0,58,0.00,,,0.01,VWS V14.01,2013-02-09 19:34:00,
2013-02-09 11:35:00,54.9,40.4,30.00,ESE,122,0.0,0.0,58,0.00,,,0.01,VWS V14.01,2013-02-09 19:35:00,
2013-02-09 11:38:00,55.6,41.1,30.00,ENE,75,1.0,1.0,58,0.00,,,0.01,VWS V14.01,2013-02-09 19:38:00,
2013-02-09 11:40:00,55.7,40.3,30.00,ENE,70,0.0,2.0,56,0.00,,,0.01,VWS V14.01,2013-02-09 19:40:00,
2013-02-09 11:41:00,55.7,40.3,30.00,NNW,327,0.0,0.0,56,0.00,,,0.01,VWS V14.01,2013-02-09 19:41:00,
2013-02-09 11:43:00,55.6,40.6,30.00,NNE,18,1.0,2.0,57,0.00,,,0.01,VWS V14.01,2013-02-09 19:43:00,
2013-02-09 11:44:00,55.6,40.6,30.00,NNE,16,3.0,3.0,57,0.00,,,0.01,VWS V14.01,2013-02-09 19:44:00,
2013-02-09 11:45:00,55.5,40.1,30.00,NW,313,2.0,2.0,56,0.00,,,0.01,VWS V14.01,2013-02-09 19:45:00,
2013-02-09 11:47:00,55.3,40.3,30.00,NNW,328,1.0,2.0,57,0.00,,,0.01,VWS V14.01,2013-02-09 19:47:00,
2013-02-09 11:48:00,55.3,40.3,29.99,NW,322,1.0,2.0,57,0.00,,,0.01,VWS V14.01,2013-02-09 19:48:00,
2013-02-09 11:50:00,55.0,40.1,29.99,SW,229,0.0,1.0,57,0.00,,,0.01,VWS V14.01,2013-02-09 19:50:00,
2013-02-09 11:51:00,54.9,40.4,30.00,SW,231,1.0,1.0,58,0.00,,,0.01,VWS V14.01,2013-02-09 19:51:00,
2013-02-09 11:53:00,54.8,40.3,30.00,SW,231,1.0,1.0,58,0.00,,,0.01,VWS V14.01,2013-02-09 19:53:00,
2013-02-09 11:55:00,54.7,40.2,30.00,North,352,1.0,2.0,58,0.00,,,0.01,VWS V14.01,2013-02-09 19:55:00,
2013-02-09 11:56:00,54.7,40.2,30.00,West,275,0.0,2.0,58,0.00,,,0.01,VWS V14.01,2013-02-09 19:56:00,
2013-02-09 11:59:00,54.7,40.7,29.99,WSW,250,0.0,0.0,59,0.00,,,0.01,VWS V14.01,2013-02-09 19:59:00,
2013-02-09 12:02:00,55.0,40.5,29.99,NNE,33,0.0,2.0,58,0.00,,,0.01,VWS V14.01,2013-02-09 20:02:00,
2013-02-09 12:03:00,55.0,40.5,29.99,NNW,330,0.0,1.0,58,0.00,,,0.01,VWS V14.01,2013-02-09 20:03:00,
2013-02-09 12:05:00,54.9,40.4,29.99,NNW,343,3.0,4.0,58,0.00,,,0.01,VWS V14.01,2013-02-09 20:05:00,
2013-02-09 12:07:00,54.8,40.3,29.99,South,183,1.0,1.0,58,0.00,,,0.01,VWS V14.01,2013-02-09 20:07:00,
2013-02-09 12:09:00,54.9,40.4,29.99,NW,322,3.0,3.0,58,0.00,,,0.01,VWS V14.01,2013-02-09 20:09:00,
2013-02-09 12:10:00,54.8,39.9,29.99,NNW,345,2.0,4.0,57,0.00,,,0.01,VWS V14.01,2013-02-09 20:10:00,
2013-02-09 12:11:00,54.7,40.2,29.99,NW,319,0.0,3.0,58,0.00,,,0.01,VWS V14.01,2013-02-09 20:11:00,
2013-02-09 12:12:00,54.6,40.1,29.99,NNW,333,1.0,2.0,58,0.00,,,0.01,VWS V14.01,2013-02-09 20:12:00,
2013-02-09 12:16:00,54.6,40.1,29.99,NNE,18,1.0,3.0,58,0.00,,,0.01,VWS V14.01,2013-02-09 20:16:00,
2013-02-09 12:17:00,54.6,40.1,29.99,ENE,70,2.0,2.0,58,0.00,,,0.01,VWS V14.01,2013-02-09 20:17:00,
2013-02-09 12:18:00,54.7,40.2,29.99,East,100,0.0,2.0,58,0.00,,,0.01,VWS V14.01,2013-02-09 20:18:00,
2013-02-09 12:22:00,55.6,42.0,29.99,NNW,335,2.0,3.0,60,0.00,,,0.01,VWS V14.01,2013-02-09 20:22:00,
2013-02-09 12:24:00,55.9,41.8,29.98,West,264,1.0,1.0,59,0.00,,,0.01,VWS V14.01,2013-02-09 20:24:00,
2013-02-09 12:28:00,56.4,41.8,29.98,WSW,240,1.0,4.0,58,0.00,,,0.01,VWS V14.01,2013-02-09 20:28:00,
2013-02-09 12:29:00,56.6,42.5,29.98,WSW,242,5.0,5.0,59,0.00,,,0.01,VWS V14.01,2013-02-09 20:29:00,
2013-02-09 12:31:00,56.8,41.8,29.98,West,278,5.0,6.0,57,0.00,,,0.01,VWS V14.01,2013-02-09 20:31:00,
2013-02-09 12:33:00,56.6,41.1,29.98,WNW,293,1.0,1.0,56,0.00,,,0.01,VWS V14.01,2013-02-09 20:33:00,
2013-02-09 12:34:00,56.5,41.5,29.98,West,263,2.0,3.0,57,0.00,,,0.01,VWS V14.01,2013-02-09 20:34:00,
2013-02-09 12:36:00,56.6,41.6,29.98,SSE,147,6.0,6.0,57,0.00,,,0.01,VWS V14.01,2013-02-09 20:36:00,
2013-02-09 12:39:00,56.7,41.2,29.98,West,266,6.0,7.0,56,0.00,,,0.01,VWS V14.01,2013-02-09 20:39:00,
2013-02-09 12:41:00,56.7,40.7,29.98,WSW,241,1.0,1.0,55,0.00,,,0.01,VWS V14.01,2013-02-09 20:41:00,
2013-02-09 12:44:00,56.8,39.9,29.98,SW,224,3.0,4.0,53,0.00,,,0.01,VWS V14.01,2013-02-09 20:44:00,
2013-02-09 12:46:00,56.8,39.9,29.98,ESE,102,2.0,6.0,53,0.00,,,0.01,VWS V14.01,2013-02-09 20:46:00,
2013-02-09 12:47:00,56.8,39.9,29.98,East,90,1.0,3.0,53,0.00,,,0.01,VWS V14.01,2013-02-09 20:47:00,
2013-02-09 12:48:00,56.9,40.0,29.98,NE,34,1.0,3.0,53,0.00,,,0.01,VWS V14.01,2013-02-09 20:48:00,
2013-02-09 12:49:00,57.0,40.5,29.98,ENE,65,1.0,2.0,54,0.00,,,0.01,VWS V14.01,2013-02-09 20:49:00,
2013-02-09 12:52:00,57.5,40.5,29.98,WSW,245,4.0,5.0,53,0.00,,,0.01,VWS V14.01,2013-02-09 20:52:00,
2013-02-09 12:54:00,57.6,40.1,29.98,SSW,207,3.0,6.0,52,0.00,,,0.01,VWS V14.01,2013-02-09 20:54:00,
2013-02-09 12:55:00,57.6,40.1,29.98,WSW,243,5.0,6.0,52,0.00,,,0.01,VWS V14.01,2013-02-09 20:55:00,
2013-02-09 12:57:00,57.9,40.4,29.98,SW,215,4.0,5.0,52,0.00,,,0.01,VWS V14.01,2013-02-09 20:57:00,
2013-02-09 13:01:00,57.4,38.9,29.98,South,186,3.0,7.0,50,0.00,,,0.01,VWS V14.01,2013-02-09 21:01:00,
2013-02-09 13:02:00,57.3,38.8,29.98,SSW,194,3.0,5.0,50,0.00,,,0.01,VWS V14.01,2013-02-09 21:02:00,
2013-02-09 13:04:00,57.4,39.4,29.97,West,266,5.0,6.0,51,0.00,,,0.01,VWS V14.01,2013-02-09 21:04:00,
2013-02-09 13:05:00,57.4,39.4,29.98,WSW,256,9.0,9.0,51,0.00,,,0.01,VWS V14.01,2013-02-09 21:05:00,
2013-02-09 13:07:00,57.1,38.1,29.98,SSE,150,3.0,9.0,49,0.00,,,0.01,VWS V14.01,2013-02-09 21:07:00,
2013-02-09 13:09:00,57.0,39.1,29.98,SW,219,4.0,5.0,51,0.00,,,0.01,VWS V14.01,2013-02-09 21:09:00,
2013-02-09 13:11:00,57.1,39.2,29.98,SW,229,4.0,4.0,51,0.00,,,0.01,VWS V14.01,2013-02-09 21:11:00,
2013-02-09 13:13:00,57.1,38.1,29.98,SSW,200,5.0,9.0,49,0.00,,,0.01,VWS V14.01,2013-02-09 21:13:00,
2013-02-09 13:14:00,57.0,38.0,29.97,WSW,249,9.0,9.0,49,0.00,,,0.01,VWS V14.01,2013-02-09 21:14:00,
2013-02-09 13:16:00,56.8,38.4,29.98,West,266,6.0,6.0,50,0.00,,,0.01,VWS V14.01,2013-02-09 21:16:00,
2013-02-09 13:19:00,56.4,38.5,29.98,WSW,241,11.0,11.0,51,0.00,,,0.01,VWS V14.01,2013-02-09 21:19:00,
2013-02-09 13:20:00,56.1,37.7,29.97,WSW,243,5.0,11.0,50,0.00,,,0.01,VWS V14.01,2013-02-09 21:20:00,
2013-02-09 13:23:00,55.9,37.5,29.98,SW,217,4.0,10.0,50,0.00,,,0.01,VWS V14.01,2013-02-09 21:23:00,
2013-02-09 13:24:00,55.9,37.5,29.97,West,279,7.0,7.0,50,0.00,,,0.01,VWS V14.01,2013-02-09 21:24:00,
2013-02-09 13:25:00,55.7,37.4,29.97,WSW,249,6.0,8.0,50,0.00,,,0.01,VWS V14.01,2013-02-09 21:25:00,
2013-02-09 13:29:00,55.6,37.3,29.97,ESE,118,4.0,8.0,50,0.00,,,0.01,VWS V14.01,2013-02-09 21:29:00,
2013-02-09 13:30:00,55.6,37.8,29.97,SW,233,7.0,11.0,51,0.00,,,0.01,VWS V14.01,2013-02-09 21:30:00,
2013-02-09 13:31:00,55.6,37.3,29.97,SW,215,9.0,11.0,50,0.00,,,0.01,VWS V14.01,2013-02-09 21:31:00,
2013-02-09 13:34:00,55.5,37.7,29.97,SW,226,4.0,4.0,51,0.00,,,0.01,VWS V14.01,2013-02-09 21:34:00,
2013-02-09 13:35:00,55.5,38.2,29.97,WSW,249,5.0,7.0,52,0.00,,,0.01,VWS V14.01,2013-02-09 21:35:00,
2013-02-09 13:38:00,55.7,37.9,29.97,WNW,298,3.0,4.0,51,0.00,,,0.01,VWS V14.01,2013-02-09 21:38:00,
2013-02-09 13:39:00,55.8,38.0,29.97,WSW,239,6.0,6.0,51,0.00,,,0.01,VWS V14.01,2013-02-09 21:39:00,
2013-02-09 13:41:00,55.7,37.4,29.97,WNW,284,6.0,12.0,50,0.00,,,0.01,VWS V14.01,2013-02-09 21:41:00,
2013-02-09 13:43:00,55.6,36.8,29.97,SSW,205,7.0,8.0,49,0.00,,,0.01,VWS V14.01,2013-02-09 21:43:00,
2013-02-09 13:45:00,55.4,36.1,29.97,WSW,253,5.0,7.0,48,0.00,,,0.01,VWS V14.01,2013-02-09 21:45:00,
2013-02-09 13:47:00,55.4,36.1,29.98,SSW,197,5.0,8.0,48,0.00,,,0.01,VWS V14.01,2013-02-09 21:47:00,
2013-02-09 13:49:00,55.4,36.6,29.98,WSW,246,3.0,3.0,49,0.00,,,0.01,VWS V14.01,2013-02-09 21:49:00,
2013-02-09 13:50:00,55.5,37.2,29.98,West,260,6.0,6.0,50,0.00,,,0.01,VWS V14.01,2013-02-09 21:50:00,
2013-02-09 13:53:00,55.4,36.6,29.98,South,185,6.0,7.0,49,0.00,,,0.01,VWS V14.01,2013-02-09 21:53:00,
2013-02-09 13:54:00,55.3,36.5,29.98,SSW,205,4.0,5.0,49,0.00,,,0.01,VWS V14.01,2013-02-09 21:54:00,
2013-02-09 13:56:00,55.3,36.0,29.98,SW,221,4.0,7.0,48,0.00,,,0.01,VWS V14.01,2013-02-09 21:56:00,
2013-02-09 13:59:00,55.3,37.0,29.98,SSW,208,4.0,7.0,50,0.00,,,0.01,VWS V14.01,2013-02-09 21:59:00,
2013-02-09 14:01:00,55.2,38.4,29.98,SSW,194,6.0,8.0,53,0.00,,,0.01,VWS V14.01,2013-02-09 22:01:00,
2013-02-09 14:02:00,55.2,38.9,29.98,ESE,115,4.0,10.0,54,0.00,,,0.01,VWS V14.01,2013-02-09 22:02:00,
2013-02-09 14:04:00,55.3,39.0,29.98,SSW,205,4.0,5.0,54,0.00,,,0.01,VWS V14.01,2013-02-09 22:04:00,
2013-02-09 14:06:00,55.5,39.1,29.98,SSW,201,4.0,5.0,54,0.00,,,0.01,VWS V14.01,2013-02-09 22:06:00,
2013-02-09 14:07:00,55.6,39.2,29.98,West,280,3.0,4.0,54,0.00,,,0.01,VWS V14.01,2013-02-09 22:07:00,
2013-02-09 14:11:00,56.2,40.3,29.98,West,266,5.0,5.0,55,0.00,,,0.01,VWS V14.01,2013-02-09 22:11:00,
2013-02-09 14:12:00,56.3,40.4,29.98,WNW,298,4.0,7.0,55,0.00,,,0.01,VWS V14.01,2013-02-09 22:12:00,
2013-02-09 14:15:00,56.1,39.2,29.98,SSW,210,5.0,10.0,53,0.00,,,0.01,VWS V14.01,2013-02-09 22:15:00,
2013-02-09 14:17:00,55.8,39.4,29.98,SW,231,4.0,6.0,54,0.00,,,0.01,VWS V14.01,2013-02-09 22:17:00,
2013-02-09 14:20:00,55.9,40.9,29.98,WSW,246,7.0,11.0,57,0.00,,,0.01,VWS V14.01,2013-02-09 22:20:00,
2013-02-09 14:22:00,55.7,40.3,29.98,SW,219,5.0,6.0,56,0.00,,,0.01,VWS V14.01,2013-02-09 22:22:00,
2013-02-09 14:23:00,55.7,40.3,29.98,WSW,253,7.0,9.0,56,0.00,,,0.01,VWS V14.01,2013-02-09 22:23:00,
2013-02-09 14:27:00,55.8,41.3,29.98,WSW,238,1.0,2.0,58,0.00,,,0.01,VWS V14.01,2013-02-09 22:27:00,
2013-02-09 14:28:00,55.9,41.3,29.98,West,263,4.0,4.0,58,0.00,,,0.01,VWS V14.01,2013-02-09 22:28:00,
2013-02-09 14:29:00,55.9,41.3,29.98,NW,317,2.0,7.0,58,0.00,,,0.01,VWS V14.01,2013-02-09 22:29:00,
2013-02-09 14:30:00,56.0,41.5,29.98,WSW,248,8.0,8.0,58,0.00,,,0.01,VWS V14.01,2013-02-09 22:30:00,
2013-02-09 14:33:00,55.8,40.8,29.98,West,264,9.0,9.0,57,0.00,,,0.01,VWS V14.01,2013-02-09 22:33:00,
2013-02-09 14:34:00,55.7,40.3,29.98,West,270,5.0,9.0,56,0.00,,,0.01,VWS V14.01,2013-02-09 22:34:00,
2013-02-09 14:36:00,55.6,40.2,29.98,WNW,290,8.0,11.0,56,0.00,,,0.01,VWS V14.01,2013-02-09 22:36:00,
2013-02-09 14:39:00,55.5,40.1,29.98,South,179,6.0,10.0,56,0.00,,,0.01,VWS V14.01,2013-02-09 22:39:00,
2013-02-09 14:44:00,55.4,39.5,29.98,West,277,7.0,11.0,55,0.00,,,0.01,VWS V14.01,2013-02-09 22:44:00,
2013-02-09 14:45:00,55.3,40.3,29.98,SSW,194,3.0,5.0,57,0.00,,,0.01,VWS V14.01,2013-02-09 22:45:00,
2013-02-09 14:49:00,55.1,40.6,29.98,SW,235,4.0,6.0,58,0.00,,,0.01,VWS V14.01,2013-02-09 22:49:00,
2013-02-09 14:50:00,55.2,40.7,29.98,SW,229,4.0,7.0,58,0.00,,,0.01,VWS V14.01,2013-02-09 22:50:00,
2013-02-09 14:54:00,54.9,40.0,29.98,WNW,302,4.0,8.0,57,0.00,,,0.01,VWS V14.01,2013-02-09 22:54:00,
2013-02-09 14:55:00,54.9,40.0,29.98,WSW,240,3.0,4.0,57,0.00,,,0.01,VWS V14.01,2013-02-09 22:55:00,
2013-02-09 14:59:00,55.1,39.7,29.98,West,271,6.0,7.0,56,0.00,,,0.01,VWS V14.01,2013-02-09 22:59:00,
2013-02-09 15:01:00,55.0,39.6,29.98,SW,233,7.0,7.0,56,0.00,,,0.01,VWS V14.01,2013-02-09 23:01:00,
2013-02-09 15:05:00,55.1,39.7,29.98,WSW,238,8.0,12.0,56,0.00,,,0.01,VWS V14.01,2013-02-09 23:05:00,
2013-02-09 15:06:00,55.0,39.6,29.98,SW,219,6.0,8.0,56,0.00,,,0.01,VWS V14.01,2013-02-09 23:06:00,
2013-02-09 15:10:00,55.0,40.1,29.98,SW,226,4.0,7.0,57,0.00,,,0.01,VWS V14.01,2013-02-09 23:10:00,
2013-02-09 15:11:00,55.1,40.2,29.98,WSW,249,6.0,7.0,57,0.00,,,0.01,VWS V14.01,2013-02-09 23:11:00,
2013-02-09 15:15:00,55.5,40.5,29.98,SW,231,10.0,10.0,57,0.00,,,0.01,VWS V14.01,2013-02-09 23:15:00,
2013-02-09 15:16:00,55.4,40.0,29.98,WNW,286,5.0,11.0,56,0.00,,,0.01,VWS V14.01,2013-02-09 23:16:00,
2013-02-09 15:20:00,54.9,40.0,29.98,South,186,5.0,9.0,57,0.00,,,0.01,VWS V14.01,2013-02-09 23:20:00,
2013-02-09 15:21:00,54.9,40.0,29.98,WSW,245,6.0,9.0,57,0.00,,,0.01,VWS V14.01,2013-02-09 23:21:00,
2013-02-09 15:25:00,54.9,40.4,29.98,SW,232,8.0,8.0,58,0.00,,,0.01,VWS V14.01,2013-02-09 23:25:00,
2013-02-09 15:26:00,54.8,40.3,29.98,West,262,5.0,8.0,58,0.00,,,0.01,VWS V14.01,2013-02-09 23:26:00,
2013-02-09 15:27:00,54.9,40.4,29.98,WSW,256,6.0,6.0,58,0.00,,,0.01,VWS V14.01,2013-02-09 23:27:00,
2013-02-09 15:31:00,55.0,40.1,29.98,WSW,250,5.0,8.0,57,0.00,,,0.01,VWS V14.01,2013-02-09 23:31:00,
2013-02-09 15:32:00,54.8,39.9,29.98,SSW,212,3.0,7.0,57,0.00,,,0.01,VWS V14.01,2013-02-09 23:32:00,
2013-02-09 15:33:00,54.8,39.9,29.98,West,281,2.0,4.0,57,0.00,,,0.01,VWS V14.01,2013-02-09 23:33:00,
2013-02-09 15:36:00,55.1,40.2,29.98,WSW,243,7.0,8.0,57,0.00,,,0.01,VWS V14.01,2013-02-09 23:36:00,
2013-02-09 15:38:00,54.9,40.4,29.97,West,278,8.0,10.0,58,0.00,,,0.01,VWS V14.01,2013-02-09 23:38:00,
2013-02-09 15:39:00,54.9,40.4,29.97,SW,236,3.0,9.0,58,0.00,,,0.01,VWS V14.01,2013-02-09 23:39:00,
2013-02-09 15:43:00,54.7,40.7,29.97,WNW,300,5.0,6.0,59,0.00,,,0.01,VWS V14.01,2013-02-09 23:43:00,
2013-02-09 15:44:00,54.7,40.7,29.97,WSW,238,4.0,9.0,59,0.00,,,0.01,VWS V14.01,2013-02-09 23:44:00,
2013-02-09 15:45:00,54.8,40.8,29.97,SW,214,4.0,8.0,59,0.00,,,0.01,VWS V14.01,2013-02-09 23:45:00,
2013-02-09 15:47:00,54.7,40.2,29.97,SW,221,2.0,4.0,58,0.00,,,0.01,VWS V14.01,2013-02-09 23:47:00,
2013-02-09 15:49:00,54.8,40.8,29.97,SSW,193,3.0,4.0,59,0.00,,,0.01,VWS V14.01,2013-02-09 23:49:00,
2013-02-09 15:50:00,54.9,40.4,29.97,SW,214,1.0,5.0,58,0.00,,,0.01,VWS V14.01,2013-02-09 23:50:00,
2013-02-09 15:52:00,55.1,40.6,29.97,WNW,297,2.0,5.0,58,0.00,,,0.01,VWS V14.01,2013-02-09 23:52:00,
2013-02-09 15:55:00,55.3,40.8,29.97,West,273,5.0,9.0,58,0.00,,,0.01,VWS V14.01,2013-02-09 23:55:00,
2013-02-09 15:56:00,55.3,40.8,29.97,SW,218,7.0,8.0,58,0.00,,,0.01,VWS V14.01,2013-02-09 23:56:00,
2013-02-09 15:58:00,55.0,39.6,29.97,SW,231,6.0,7.0,56,0.00,,,0.01,VWS V14.01,2013-02-09 23:58:00,
2013-02-09 16:01:00,54.7,39.8,29.97,SSW,210,3.0,6.0,57,0.00,,,0.01,VWS V14.01,2013-02-10 00:01:00,
2013-02-09 16:02:00,54.7,39.8,29.97,WNW,291,4.0,6.0,57,0.00,,,0.01,VWS V14.01,2013-02-10 00:02:00,
2013-02-09 16:06:00,54.7,40.2,29.97,WNW,283,6.0,7.0,58,0.00,,,0.01,VWS V14.01,2013-02-10 00:06:00,
2013-02-09 16:08:00,54.7,40.2,29.97,NW,318,2.0,7.0,58,0.00,,,0.01,VWS V14.01,2013-02-10 00:08:00,
2013-02-09 16:11:00,54.9,40.9,29.97,West,277,5.0,5.0,59,0.00,,,0.01,VWS V14.01,2013-02-10 00:11:00,
2013-02-09 16:13:00,54.8,40.3,29.97,WSW,250,3.0,6.0,58,0.00,,,0.01,VWS V14.01,2013-02-10 00:13:00,
2013-02-09 16:16:00,54.5,40.9,29.97,West,281,2.0,6.0,60,0.00,,,0.01,VWS V14.01,2013-02-10 00:16:00,
2013-02-09 16:18:00,54.5,40.5,29.97,West,276,4.0,8.0,59,0.00,,,0.01,VWS V14.01,2013-02-10 00:18:00,
2013-02-09 16:21:00,54.4,40.4,29.97,West,281,4.0,7.0,59,0.00,,,0.01,VWS V14.01,2013-02-10 00:21:00,
2013-02-09 16:23:00,54.2,39.8,29.97,West,270,6.0,9.0,58,0.00,,,0.01,VWS V14.01,2013-02-10 00:23:00,
2013-02-09 16:26:00,54.0,40.0,29.97,West,266,5.0,6.0,59,0.00,,,0.01,VWS V14.01,2013-02-10 00:26:00,
2013-02-09 16:28:00,54.0,40.0,29.97,WSW,245,5.0,5.0,59,0.00,,,0.01,VWS V14.01,2013-02-10 00:28:00,
2013-02-09 16:30:00,53.9,39.9,29.97,WNW,284,2.0,2.0,59,0.00,,,0.01,VWS V14.01,2013-02-10 00:30:00,
2013-02-09 16:31:00,53.9,39.9,29.97,WSW,253,4.0,5.0,59,0.00,,,0.01,VWS V14.01,2013-02-10 00:31:00,
2013-02-09 16:34:00,53.5,40.4,29.97,West,274,4.0,4.0,61,0.00,,,0.01,VWS V14.01,2013-02-10 00:34:00,
2013-02-09 16:36:00,53.4,40.3,29.97,WSW,258,7.0,10.0,61,0.00,,,0.01,VWS V14.01,2013-02-10 00:36:00,
2013-02-09 16:41:00,53.1,40.4,29.97,SW,233,3.0,6.0,62,0.00,,,0.01,VWS V14.01,2013-02-10 00:41:00,
2013-02-09 16:42:00,53.0,40.3,29.97,West,273,2.0,5.0,62,0.00,,,0.01,VWS V14.01,2013-02-10 00:42:00,
2013-02-09 16:46:00,53.0,40.8,29.98,West,276,3.0,5.0,63,0.00,,,0.01,VWS V14.01,2013-02-10 00:46:00,
2013-02-09 16:47:00,53.0,40.8,29.98,West,264,2.0,2.0,63,0.00,,,0.01,VWS V14.01,2013-02-10 00:47:00,
2013-02-09 16:48:00,53.0,41.2,29.98,SW,221,1.0,1.0,64,0.00,,,0.01,VWS V14.01,2013-02-10 00:48:00,
2013-02-09 16:52:00,52.8,41.4,29.98,West,264,7.0,8.0,65,0.00,,,0.01,VWS V14.01,2013-02-10 00:52:00,
2013-02-09 16:57:00,52.5,41.5,29.97,West,263,8.0,8.0,66,0.00,,,0.01,VWS V14.01,2013-02-10 00:57:00,
2013-02-09 17:02:00,52.2,41.2,29.98,West,274,3.0,5.0,66,0.00,,,0.01,VWS V14.01,2013-02-10 01:02:00,
2013-02-09 17:03:00,52.2,41.6,29.98,WSW,250,5.0,5.0,67,0.00,,,0.01,VWS V14.01,2013-02-10 01:03:00,
2013-02-09 17:04:00,52.1,41.5,29.98,West,265,3.0,5.0,67,0.00,,,0.01,VWS V14.01,2013-02-10 01:04:00,
2013-02-09 17:09:00,51.8,41.6,29.98,WSW,257,5.0,6.0,68,0.00,,,0.01,VWS V14.01,2013-02-10 01:09:00,
2013-02-09 17:10:00,51.8,41.6,29.98,WSW,245,4.0,4.0,68,0.00,,,0.01,VWS V14.01,2013-02-10 01:10:00,
2013-02-09 17:14:00,51.6,41.4,29.98,WSW,249,3.0,6.0,68,0.00,,,0.01,VWS V14.01,2013-02-10 01:14:00,
2013-02-09 17:15:00,51.6,41.8,29.98,WSW,239,3.0,4.0,69,0.00,,,0.01,VWS V14.01,2013-02-10 01:15:00,
2013-02-09 17:20:00,51.4,41.6,29.98,West,260,3.0,4.0,69,0.00,,,0.01,VWS V14.01,2013-02-10 01:20:00,
2013-02-09 17:21:00,51.4,41.6,29.98,West,265,1.0,4.0,69,0.00,,,0.01,VWS V14.01,2013-02-10 01:21:00,
2013-02-09 17:24:00,51.3,41.9,29.98,WSW,253,2.0,2.0,70,0.00,,,0.01,VWS V14.01,2013-02-10 01:24:00,
2013-02-09 17:25:00,51.2,41.8,29.98,WNW,287,2.0,2.0,70,0.00,,,0.01,VWS V14.01,2013-02-10 01:25:00,
2013-02-09 17:26:00,51.2,41.8,29.98,West,280,1.0,3.0,70,0.00,,,0.01,VWS V14.01,2013-02-10 01:26:00,
2013-02-09 17:30:00,51.0,41.6,29.98,SW,226,0.0,0.0,70,0.00,,,0.01,VWS V14.01,2013-02-10 01:30:00,
2013-02-09 17:32:00,50.9,41.5,29.98,SW,225,0.0,0.0,70,0.00,,,0.01,VWS V14.01,2013-02-10 01:32:00,
2013-02-09 17:33:00,50.9,41.5,29.98,SW,225,0.0,0.0,70,0.00,,,0.01,VWS V14.01,2013-02-10 01:33:00,
2013-02-09 17:35:00,50.8,41.8,29.98,SW,225,0.0,0.0,71,0.00,,,0.01,VWS V14.01,2013-02-10 01:35:00,
2013-02-09 17:37:00,50.6,41.6,29.98,SW,225,0.0,0.0,71,0.00,,,0.01,VWS V14.01,2013-02-10 01:37:00,
2013-02-09 17:39:00,50.5,41.5,29.98,SW,225,0.0,0.0,71,0.00,,,0.01,VWS V14.01,2013-02-10 01:39:00,
2013-02-09 17:40:00,50.4,41.7,29.98,SW,222,0.0,0.0,72,0.00,,,0.01,VWS V14.01,2013-02-10 01:40:00,
2013-02-09 17:42:00,50.3,41.6,29.98,SW,222,0.0,0.0,72,0.00,,,0.01,VWS V14.01,2013-02-10 01:42:00,
2013-02-09 17:46:00,50.0,41.7,29.98,SW,221,0.0,0.0,73,0.00,,,0.01,VWS V14.01,2013-02-10 01:46:00,
2013-02-09 17:47:00,50.0,41.7,29.98,SW,222,0.0,0.0,73,0.00,,,0.01,VWS V14.01,2013-02-10 01:47:00,
2013-02-09 17:49:00,49.9,41.6,29.98,SW,222,0.0,0.0,73,0.00,,,0.01,VWS V14.01,2013-02-10 01:49:00,
2013-02-09 17:52:00,49.7,41.8,29.98,SW,221,0.0,0.0,74,0.00,,,0.01,VWS V14.01,2013-02-10 01:52:00,
2013-02-09 17:54:00,49.5,41.9,29.99,SW,222,0.0,0.0,75,0.00,,,0.01,VWS V14.01,2013-02-10 01:54:00,
2013-02-09 17:57:00,49.4,41.8,29.98,SW,222,0.0,0.0,75,0.00,,,0.01,VWS V14.01,2013-02-10 01:57:00,
2013-02-09 17:59:00,49.2,41.6,29.99,SW,222,0.0,0.0,75,0.00,,,0.01,VWS V14.01,2013-02-10 01:59:00,
2013-02-09 18:00:00,49.1,41.5,29.98,SW,221,0.0,0.0,75,0.00,,,0.01,VWS V14.01,2013-02-10 02:00:00,
2013-02-09 18:01:00,48.9,41.3,29.99,SW,222,0.0,0.0,75,0.00,,,0.01,VWS V14.01,2013-02-10 02:01:00,
2013-02-09 18:02:00,48.9,41.7,29.99,SW,222,0.0,0.0,76,0.00,,,0.01,VWS V14.01,2013-02-10 02:02:00,
2013-02-09 18:05:00,48.7,41.5,29.99,SW,222,0.0,0.0,76,0.00,,,0.01,VWS V14.01,2013-02-10 02:05:00,
2013-02-09 18:08:00,48.6,41.7,29.99,SW,221,0.0,0.0,77,0.00,,,0.01,VWS V14.01,2013-02-10 02:08:00,
2013-02-09 18:10:00,48.5,41.6,29.99,SW,221,0.0,0.0,77,0.00,,,0.01,VWS V14.01,2013-02-10 02:10:00,
2013-02-09 18:13:00,48.3,41.4,29.99,SW,221,0.0,0.0,77,0.00,,,0.01,VWS V14.01,2013-02-10 02:13:00,
2013-02-09 18:15:00,48.2,41.7,29.99,SW,221,0.0,0.0,78,0.00,,,0.01,VWS V14.01,2013-02-10 02:15:00,
2013-02-09 18:18:00,47.9,41.4,29.99,SW,221,0.0,0.0,78,0.00,,,0.01,VWS V14.01,2013-02-10 02:18:00,
2013-02-09 18:20:00,47.8,41.6,29.99,SW,221,0.0,0.0,79,0.00,,,0.01,VWS V14.01,2013-02-10 02:20:00,
2013-02-09 18:22:00,47.8,41.6,29.99,SW,221,0.0,0.0,79,0.00,,,0.01,VWS V14.01,2013-02-10 02:22:00,
2013-02-09 18:24:00,47.8,41.6,29.99,SW,221,0.0,0.0,79,0.00,,,0.01,VWS V14.01,2013-02-10 02:24:00,
2013-02-09 18:25:00,47.8,41.6,29.99,SW,221,0.0,0.0,79,0.00,,,0.01,VWS V14.01,2013-02-10 02:25:00,
2013-02-09 18:27:00,47.9,41.7,29.99,SW,221,0.0,0.0,79,0.00,,,0.01,VWS V14.01,2013-02-10 02:27:00,
2013-02-09 18:29:00,47.8,41.6,29.99,SW,221,0.0,0.0,79,0.00,,,0.01,VWS V14.01,2013-02-10 02:29:00,
2013-02-09 18:30:00,47.7,41.5,29.99,SW,221,0.0,0.0,79,0.00,,,0.01,VWS V14.01,2013-02-10 02:30:00,
2013-02-09 18:31:00,47.7,41.5,29.99,SW,221,0.0,0.0,79,0.00,,,0.01,VWS V14.01,2013-02-10 02:31:00,
2013-02-09 18:32:00,47.6,41.4,29.99,SW,220,0.0,0.0,79,0.00,,,0.01,VWS V14.01,2013-02-10 02:32:00,
2013-02-09 18:35:00,47.4,41.2,29.99,SW,221,0.0,0.0,79,0.00,,,0.01,VWS V14.01,2013-02-10 02:35:00,
2013-02-09 18:36:00,47.3,41.5,29.99,SW,221,0.0,0.0,80,0.00,,,0.01,VWS V14.01,2013-02-10 02:36:00,
2013-02-09 18:37:00,47.3,41.5,30.00,SW,221,0.0,0.0,80,0.00,,,0.01,VWS V14.01,2013-02-10 02:37:00,
2013-02-09 18:42:00,47.1,41.3,30.00,SW,221,0.0,0.0,80,0.00,,,0.01,VWS V14.01,2013-02-10 02:42:00,
2013-02-09 18:43:00,47.0,41.2,30.00,SW,222,0.0,0.0,80,0.00,,,0.01,VWS V14.01,2013-02-10 02:43:00,
2013-02-09 18:47:00,46.9,41.4,30.00,SW,221,0.0,0.0,81,0.00,,,0.01,VWS V14.01,2013-02-10 02:47:00,
2013-02-09 18:48:00,46.9,41.4,30.00,SW,221,0.0,0.0,81,0.00,,,0.01,VWS V14.01,2013-02-10 02:48:00,
2013-02-09 18:49:00,47.0,41.5,30.00,SW,221,0.0,0.0,81,0.00,,,0.01,VWS V14.01,2013-02-10 02:49:00,
2013-02-09 18:52:00,46.8,41.3,30.00,SW,221,0.0,0.0,81,0.00,,,0.01,VWS V14.01,2013-02-10 02:52:00,
2013-02-09 18:54:00,46.7,41.2,30.00,SW,221,0.0,0.0,81,0.00,,,0.01,VWS V14.01,2013-02-10 02:54:00,
2013-02-09 18:57:00,46.5,41.0,30.00,SW,221,0.0,0.0,81,0.00,,,0.01,VWS V14.01,2013-02-10 02:57:00,
2013-02-09 18:59:00,46.4,40.9,30.00,SW,221,0.0,0.0,81,0.00,,,0.01,VWS V14.01,2013-02-10 02:59:00,
2013-02-09 19:00:00,46.3,40.8,30.00,SW,223,0.0,0.0,81,0.00,,,0.01,VWS V14.01,2013-02-10 03:00:00,
2013-02-09 19:02:00,46.3,41.1,30.00,SW,221,0.0,0.0,82,0.00,,,0.01,VWS V14.01,2013-02-10 03:02:00,
2013-02-09 19:05:00,46.4,41.5,30.00,SW,221,0.0,0.0,83,0.00,,,0.01,VWS V14.01,2013-02-10 03:05:00,
2013-02-09 19:07:00,46.5,41.6,30.00,SW,221,0.0,0.0,83,0.00,,,0.01,VWS V14.01,2013-02-10 03:07:00,
2013-02-09 19:08:00,46.5,41.6,30.00,SW,222,0.0,0.0,83,0.00,,,0.01,VWS V14.01,2013-02-10 03:08:00,
2013-02-09 19:10:00,46.6,41.7,30.00,SW,221,0.0,0.0,83,0.00,,,0.01,VWS V14.01,2013-02-10 03:10:00,
2013-02-09 19:11:00,46.6,41.7,30.00,SW,221,0.0,0.0,83,0.00,,,0.01,VWS V14.01,2013-02-10 03:11:00,
2013-02-09 19:14:00,46.7,41.5,30.00,SW,222,0.0,0.0,82,0.00,,,0.01,VWS V14.01,2013-02-10 03:14:00,
2013-02-09 19:15:00,46.7,41.5,30.00,SW,222,0.0,0.0,82,0.00,,,0.01,VWS V14.01,2013-02-10 03:15:00,
2013-02-09 19:16:00,46.7,41.5,30.00,SW,223,0.0,0.0,82,0.00,,,0.01,VWS V14.01,2013-02-10 03:16:00,
2013-02-09 19:20:00,46.7,41.5,30.00,SW,222,0.0,0.0,82,0.00,,,0.01,VWS V14.01,2013-02-10 03:20:00,
2013-02-09 19:21:00,46.7,41.5,30.00,SW,222,0.0,0.0,82,0.00,,,0.01,VWS V14.01,2013-02-10 03:21:00,
2013-02-09 19:25:00,46.6,41.4,30.00,SW,222,0.0,0.0,82,0.00,,,0.01,VWS V14.01,2013-02-10 03:25:00,
2013-02-09 19:27:00,46.5,41.3,30.00,SW,222,0.0,0.0,82,0.00,,,0.01,VWS V14.01,2013-02-10 03:27:00,
2013-02-09 19:32:00,46.5,41.6,30.00,SW,221,0.0,0.0,83,0.00,,,0.01,VWS V14.01,2013-02-10 03:32:00,
2013-02-09 19:33:00,46.5,41.6,30.00,SSE,158,0.0,0.0,83,0.00,,,0.01,VWS V14.01,2013-02-10 03:33:00,
2013-02-09 19:34:00,46.5,41.6,30.01,SSE,158,0.0,0.0,83,0.00,,,0.01,VWS V14.01,2013-02-10 03:34:00,
2013-02-09 19:37:00,46.4,41.5,30.01,SSE,158,0.0,0.0,83,0.00,,,0.01,VWS V14.01,2013-02-10 03:37:00,
2013-02-09 19:39:00,46.4,41.5,30.01,SSE,158,0.0,0.0,83,0.00,,,0.01,VWS V14.01,2013-02-10 03:39:00,
2013-02-09 19:40:00,46.4,41.5,30.01,SSE,158,0.0,0.0,83,0.00,,,0.01,VWS V14.01,2013-02-10 03:40:00,
2013-02-09 19:42:00,46.4,41.5,30.01,SSE,158,0.0,0.0,83,0.00,,,0.01,VWS V14.01,2013-02-10 03:42:00,
2013-02-09 19:43:00,46.4,41.5,30.01,SSE,158,0.0,0.0,83,0.00,,,0.01,VWS V14.01,2013-02-10 03:43:00,
2013-02-09 19:47:00,46.3,41.4,30.01,SSE,158,0.0,0.0,83,0.00,,,0.01,VWS V14.01,2013-02-10 03:47:00,
2013-02-09 19:48:00,46.3,41.4,30.01,SSE,158,0.0,0.0,83,0.00,,,0.01,VWS V14.01,2013-02-10 03:48:00,
2013-02-09 19:52:00,46.3,41.7,30.01,SSE,158,0.0,0.0,84,0.00,,,0.01,VWS V14.01,2013-02-10 03:52:00,
2013-02-09 19:53:00,46.3,41.7,30.01,SSE,158,0.0,0.0,84,0.00,,,0.01,VWS V14.01,2013-02-10 03:53:00,
2013-02-09 19:54:00,46.2,41.6,30.01,SSE,158,0.0,0.0,84,0.00,,,0.01,VWS V14.01,2013-02-10 03:54:00,
2013-02-09 19:57:00,46.1,41.5,30.02,SSE,158,0.0,0.0,84,0.00,,,0.01,VWS V14.01,2013-02-10 03:57:00,
2013-02-09 19:58:00,46.1,41.5,30.02,SSE,158,0.0,0.0,84,0.00,,,0.01,VWS V14.01,2013-02-10 03:58:00,
2013-02-09 19:59:00,46.1,41.5,30.02,SSE,158,0.0,0.0,84,0.00,,,0.01,VWS V14.01,2013-02-10 03:59:00,
2013-02-09 20:03:00,46.0,41.4,30.02,SSE,158,0.0,0.0,84,0.00,,,0.01,VWS V14.01,2013-02-10 04:03:00,
2013-02-09 20:04:00,46.0,41.4,30.02,SSE,158,0.0,0.0,84,0.00,,,0.01,VWS V14.01,2013-02-10 04:04:00,
2013-02-09 20:08:00,45.8,41.2,30.02,SSE,158,0.0,0.0,84,0.00,,,0.01,VWS V14.01,2013-02-10 04:08:00,
2013-02-09 20:10:00,45.8,41.2,30.02,SSE,156,0.0,0.0,84,0.00,,,0.01,VWS V14.01,2013-02-10 04:10:00,
2013-02-09 20:11:00,45.8,41.2,30.02,SSE,156,0.0,0.0,84,0.00,,,0.01,VWS V14.01,2013-02-10 04:11:00,
2013-02-09 20:15:00,45.7,41.5,30.02,SSE,156,0.0,0.0,85,0.00,,,0.01,VWS V14.01,2013-02-10 04:15:00,
2013-02-09 20:16:00,45.7,41.5,30.02,SSE,156,0.0,0.0,85,0.00,,,0.01,VWS V14.01,2013-02-10 04:16:00,
2013-02-09 20:17:00,45.7,41.5,30.02,SSE,156,0.0,0.0,85,0.00,,,0.01,VWS V14.01,2013-02-10 04:17:00,
2013-02-09 20:20:00,45.7,41.5,30.02,SSE,156,0.0,0.0,85,0.00,,,0.01,VWS V14.01,2013-02-10 04:20:00,
2013-02-09 20:21:00,45.7,41.5,30.02,SSE,156,0.0,0.0,85,0.00,,,0.01,VWS V14.01,2013-02-10 04:21:00,
2013-02-09 20:25:00,45.7,41.2,30.02,SSE,147,0.0,0.0,84,0.00,,,0.01,VWS V14.01,2013-02-10 04:25:00,
2013-02-09 20:27:00,45.6,41.0,30.03,SE,146,0.0,0.0,84,0.00,,,0.01,VWS V14.01,2013-02-10 04:27:00,
2013-02-09 20:29:00,45.5,41.0,30.02,SE,146,0.0,0.0,84,0.00,,,0.01,VWS V14.01,2013-02-10 04:29:00,
2013-02-09 20:30:00,45.4,41.2,30.02,SE,146,0.0,0.0,85,0.00,,,0.01,VWS V14.01,2013-02-10 04:30:00,
2013-02-09 20:33:00,45.3,41.1,30.02,SE,146,0.0,0.0,85,0.00,,,0.01,VWS V14.01,2013-02-10 04:33:00,
2013-02-09 20:34:00,45.3,41.1,30.03,SE,146,0.0,0.0,85,0.00,,,0.01,VWS V14.01,2013-02-10 04:34:00,
2013-02-09 20:35:00,45.2,41.0,30.03,SE,146,0.0,0.0,85,0.00,,,0.01,VWS V14.01,2013-02-10 04:35:00,
2013-02-09 20:39:00,45.1,40.9,30.03,SE,146,0.0,0.0,85,0.00,,,0.01,VWS V14.01,2013-02-10 04:39:00,
2013-02-09 20:40:00,45.1,40.9,30.03,SE,146,0.0,0.0,85,0.00,,,0.01,VWS V14.01,2013-02-10 04:40:00,
2013-02-09 20:45:00,45.1,40.9,30.03,SE,146,0.0,0.0,85,0.00,,,0.01,VWS V14.01,2013-02-10 04:45:00,
2013-02-09 20:46:00,45.1,40.9,30.03,SE,146,0.0,0.0,85,0.00,,,0.01,VWS V14.01,2013-02-10 04:46:00,
2013-02-09 20:51:00,44.9,40.7,30.03,SE,146,0.0,0.0,85,0.00,,,0.01,VWS V14.01,2013-02-10 04:51:00,
2013-02-09 20:52:00,44.9,40.7,30.03,SE,146,0.0,0.0,85,0.00,,,0.01,VWS V14.01,2013-02-10 04:52:00,
2013-02-09 20:56:00,44.9,40.7,30.03,SE,146,0.0,0.0,85,0.00,,,0.01,VWS V14.01,2013-02-10 04:56:00,
2013-02-09 20:57:00,44.8,40.6,30.03,SE,146,0.0,0.0,85,0.00,,,0.01,VWS V14.01,2013-02-10 04:57:00,
2013-02-09 21:00:00,44.8,40.6,30.03,SE,146,0.0,0.0,85,0.00,,,0.01,VWS V14.01,2013-02-10 05:00:00,
2013-02-09 21:01:00,44.8,40.6,30.03,SE,146,0.0,0.0,85,0.00,,,0.01,VWS V14.01,2013-02-10 05:01:00,
2013-02-09 21:05:00,44.7,40.5,30.03,SE,146,0.0,0.0,85,0.00,,,0.01,VWS V14.01,2013-02-10 05:05:00,
2013-02-09 21:06:00,44.7,40.5,30.03,SSE,147,0.0,0.0,85,0.00,,,0.01,VWS V14.01,2013-02-10 05:06:00,
2013-02-09 21:07:00,44.7,40.5,30.03,SE,146,0.0,0.0,85,0.00,,,0.01,VWS V14.01,2013-02-10 05:07:00,
2013-02-09 21:08:00,44.6,40.4,30.03,SE,146,0.0,0.0,85,0.00,,,0.01,VWS V14.01,2013-02-10 05:08:00,
2013-02-09 21:11:00,44.5,40.0,30.03,SE,146,0.0,0.0,84,0.00,,,0.01,VWS V14.01,2013-02-10 05:11:00,
2013-02-09 21:15:00,44.5,40.0,30.03,SE,139,0.0,0.0,84,0.00,,,0.01,VWS V14.01,2013-02-10 05:15:00,
2013-02-09 21:16:00,44.4,39.9,30.03,SE,139,0.0,0.0,84,0.00,,,0.01,VWS V14.01,2013-02-10 05:16:00,
2013-02-09 21:21:00,44.3,39.8,30.03,SE,139,0.0,0.0,84,0.00,,,0.01,VWS V14.01,2013-02-10 05:21:00,
2013-02-09 21:22:00,44.3,39.8,30.03,SE,139,0.0,0.0,84,0.00,,,0.01,VWS V14.01,2013-02-10 05:22:00,
2013-02-09 21:24:00,44.3,39.8,30.03,SE,129,0.0,1.0,84,0.00,,,0.01,VWS V14.01,2013-02-10 05:24:00,
2013-02-09 21:26:00,44.3,39.5,30.03,SE,139,0.0,1.0,83,0.00,,,0.01,VWS V14.01,2013-02-10 05:26:00,
2013-02-09 21:27:00,44.2,39.4,30.03,SE,139,0.0,0.0,83,0.00,,,0.01,VWS V14.01,2013-02-10 05:27:00,
2013-02-09 21:29:00,44.2,39.4,30.04,SE,136,0.0,0.0,83,0.00,,,0.01,VWS V14.01,2013-02-10 05:29:00,
2013-02-09 21:30:00,44.2,39.4,30.04,SE,136,0.0,0.0,83,0.00,,,0.01,VWS V14.01,2013-02-10 05:30:00,
2013-02-09 21:31:00,44.2,39.4,30.04,SE,136,0.0,0.0,83,0.00,,,0.01,VWS V14.01,2013-02-10 05:31:00,
2013-02-09 21:33:00,44.2,39.4,30.04,SE,136,0.0,0.0,83,0.00,,,0.01,VWS V14.01,2013-02-10 05:33:00,
2013-02-09 21:36:00,44.1,39.3,30.04,SE,129,0.0,0.0,83,0.00,,,0.01,VWS V14.01,2013-02-10 05:36:00,
2013-02-09 21:37:00,44.1,39.3,30.04,SE,129,0.0,0.0,83,0.00,,,0.01,VWS V14.01,2013-02-10 05:37:00,
2013-02-09 21:39:00,44.1,39.3,30.04,SE,128,0.0,0.0,83,0.00,,,0.01,VWS V14.01,2013-02-10 05:39:00,
2013-02-09 21:42:00,44.1,39.0,30.04,ESE,121,0.0,0.0,82,0.00,,,0.01,VWS V14.01,2013-02-10 05:42:00,
2013-02-09 21:43:00,44.1,39.0,30.04,ESE,121,0.0,0.0,82,0.00,,,0.01,VWS V14.01,2013-02-10 05:43:00,
2013-02-09 21:44:00,44.1,39.0,30.04,ESE,121,0.0,0.0,82,0.00,,,0.01,VWS V14.01,2013-02-10 05:44:00,
2013-02-09 21:47:00,44.2,39.1,30.04,SE,132,0.0,0.0,82,0.00,,,0.01,VWS V14.01,2013-02-10 05:47:00,
2013-02-09 21:48:00,44.2,39.1,30.04,SE,127,0.0,1.0,82,0.00,,,0.01,VWS V14.01,2013-02-10 05:48:00,
2013-02-09 21:49:00,44.2,39.1,30.04,SE,134,0.0,1.0,82,0.00,,,0.01,VWS V14.01,2013-02-10 05:49:00,
2013-02-09 21:50:00,44.2,39.1,30.04,SE,136,0.0,1.0,82,0.00,,,0.01,VWS V14.01,2013-02-10 05:50:00,
2013-02-09 21:53:00,44.2,39.1,30.04,SE,128,0.0,0.0,82,0.00,,,0.01,VWS V14.01,2013-02-10 05:53:00,
2013-02-09 21:54:00,44.2,39.1,30.04,SE,128,0.0,1.0,82,0.00,,,0.01,VWS V14.01,2013-02-10 05:54:00,
2013-02-09 21:56:00,44.1,39.0,30.04,SE,133,0.0,1.0,82,0.00,,,0.01,VWS V14.01,2013-02-10 05:56:00,
2013-02-09 21:57:00,44.1,39.0,30.04,SE,132,0.0,1.0,82,0.00,,,0.01,VWS V14.01,2013-02-10 05:57:00,
2013-02-09 21:59:00,44.1,39.0,30.04,ESE,117,0.0,0.0,82,0.00,,,0.01,VWS V14.01,2013-02-10 05:59:00,
2013-02-09 22:00:00,44.1,39.0,30.04,ESE,115,0.0,0.0,82,0.00,,,0.01,VWS V14.01,2013-02-10 06:00:00,
2013-02-09 22:02:00,44.1,39.0,30.04,ESE,117,0.0,0.0,82,0.00,,,0.01,VWS V14.01,2013-02-10 06:02:00,
2013-02-09 22:05:00,44.1,39.0,30.04,SE,125,0.0,1.0,82,0.00,,,0.01,VWS V14.01,2013-02-10 06:05:00,
2013-02-09 22:07:00,44.1,39.0,30.04,ESE,122,0.0,1.0,82,0.00,,,0.01,VWS V14.01,2013-02-10 06:07:00,
2013-02-09 22:08:00,44.1,39.0,30.04,ESE,120,0.0,1.0,82,0.00,,,0.01,VWS V14.01,2013-02-10 06:08:00,
2013-02-09 22:11:00,44.0,38.9,30.04,ESE,103,1.0,1.0,82,0.00,,,0.01,VWS V14.01,2013-02-10 06:11:00,
2013-02-09 22:12:00,44.0,38.9,30.04,ESE,116,0.0,1.0,82,0.00,,,0.01,VWS V14.01,2013-02-10 06:12:00,
2013-02-09 22:13:00,44.0,38.9,30.04,ESE,115,0.0,1.0,82,0.00,,,0.01,VWS V14.01,2013-02-10 06:13:00,
2013-02-09 22:15:00,43.9,38.8,30.04,ESE,103,1.0,1.0,82,0.00,,,0.01,VWS V14.01,2013-02-10 06:15:00,
2013-02-09 22:17:00,43.8,38.7,30.04,East,89,1.0,1.0,82,0.00,,,0.01,VWS V14.01,2013-02-10 06:17:00,
2013-02-09 22:19:00,43.8,39.0,30.04,East,94,0.0,1.0,83,0.00,,,0.01,VWS V14.01,2013-02-10 06:19:00,
2013-02-09 22:22:00,43.7,38.9,30.04,SE,128,0.0,1.0,83,0.00,,,0.01,VWS V14.01,2013-02-10 06:22:00,
2013-02-09 22:23:00,43.7,38.9,30.04,SE,127,1.0,1.0,83,0.00,,,0.01,VWS V14.01,2013-02-10 06:23:00,
2013-02-09 22:25:00,43.6,38.8,30.04,ESE,116,1.0,1.0,83,0.00,,,0.01,VWS V14.01,2013-02-10 06:25:00,
2013-02-09 22:26:00,43.6,38.8,30.04,ESE,116,1.0,1.0,83,0.00,,,0.01,VWS V14.01,2013-02-10 06:26:00,
2013-02-09 22:28:00,43.5,38.7,30.04,ESE,121,1.0,1.0,83,0.00,,,0.01,VWS V14.01,2013-02-10 06:28:00,
2013-02-09 22:29:00,43.5,38.7,30.04,ESE,108,0.0,1.0,83,0.00,,,0.01,VWS V14.01,2013-02-10 06:29:00,
2013-02-09 22:30:00,43.5,38.7,30.04,ESE,108,0.0,0.0,83,0.00,,,0.01,VWS V14.01,2013-02-10 06:30:00,
2013-02-09 22:34:00,43.6,38.8,30.04,ESE,117,1.0,1.0,83,0.00,,,0.01,VWS V14.01,2013-02-10 06:34:00,
2013-02-09 22:36:00,43.5,38.7,30.04,ESE,119,0.0,0.0,83,0.00,,,0.01,VWS V14.01,2013-02-10 06:36:00,
2013-02-09 22:38:00,43.5,38.7,30.04,SE,134,1.0,1.0,83,0.00,,,0.01,VWS V14.01,2013-02-10 06:38:00,
2013-02-09 22:39:00,43.5,38.7,30.04,ESE,118,1.0,1.0,83,0.00,,,0.01,VWS V14.01,2013-02-10 06:39:00,
2013-02-09 22:41:00,43.5,38.7,30.04,ESE,116,1.0,2.0,83,0.00,,,0.01,VWS V14.01,2013-02-10 06:41:00,
2013-02-09 22:42:00,43.5,38.7,30.04,ESE,115,1.0,1.0,83,0.00,,,0.01,VWS V14.01,2013-02-10 06:42:00,
2013-02-09 22:43:00,43.5,38.7,30.04,ESE,116,0.0,0.0,83,0.00,,,0.01,VWS V14.01,2013-02-10 06:43:00,
2013-02-09 22:44:00,43.5,38.7,30.04,ESE,115,1.0,1.0,83,0.00,,,0.01,VWS V14.01,2013-02-10 06:44:00,
2013-02-09 22:46:00,43.4,38.6,30.04,ESE,117,1.0,1.0,83,0.00,,,0.01,VWS V14.01,2013-02-10 06:46:00,
2013-02-09 22:49:00,43.3,38.8,30.04,ESE,117,0.0,1.0,84,0.00,,,0.01,VWS V14.01,2013-02-10 06:49:00,
2013-02-09 22:51:00,43.3,38.8,30.04,ESE,117,0.0,0.0,84,0.00,,,0.01,VWS V14.01,2013-02-10 06:51:00,
2013-02-09 22:53:00,43.3,38.8,30.04,ESE,117,0.0,0.0,84,0.00,,,0.01,VWS V14.01,2013-02-10 06:53:00,
2013-02-09 22:56:00,43.3,38.8,30.04,ESE,117,0.0,0.0,84,0.00,,,0.01,VWS V14.01,2013-02-10 06:56:00,
2013-02-09 22:59:00,43.2,38.7,30.04,SE,136,0.0,1.0,84,0.00,,,0.01,VWS V14.01,2013-02-10 06:59:00,
2013-02-09 23:02:00,43.2,38.7,30.05,SE,136,0.0,0.0,84,0.00,,,0.01,VWS V14.01,2013-02-10 07:02:00,
2013-02-09 23:04:00,43.2,38.7,30.05,SE,136,0.0,0.0,84,0.00,,,0.01,VWS V14.01,2013-02-10 07:04:00,
2013-02-09 23:05:00,43.1,38.6,30.05,SE,136,0.0,0.0,84,0.00,,,0.01,VWS V14.01,2013-02-10 07:05:00,
2013-02-09 23:07:00,43.1,38.6,30.05,SE,136,0.0,1.0,84,0.00,,,0.01,VWS V14.01,2013-02-10 07:07:00,
2013-02-09 23:09:00,43.1,38.6,30.05,SE,135,0.0,0.0,84,0.00,,,0.01,VWS V14.01,2013-02-10 07:09:00,
2013-02-09 23:10:00,43.1,38.6,30.05,SE,136,0.0,0.0,84,0.00,,,0.01,VWS V14.01,2013-02-10 07:10:00,
2013-02-09 23:12:00,43.1,38.6,30.05,ESE,122,0.0,0.0,84,0.00,,,0.01,VWS V14.01,2013-02-10 07:12:00,
2013-02-09 23:13:00,43.1,38.6,30.05,ESE,121,0.0,0.0,84,0.00,,,0.01,VWS V14.01,2013-02-10 07:13:00,
2013-02-09 23:15:00,43.1,38.6,30.05,ESE,121,0.0,0.0,84,0.00,,,0.01,VWS V14.01,2013-02-10 07:15:00,
2013-02-09 23:17:00,43.1,38.6,30.05,ESE,121,0.0,0.0,84,0.00,,,0.01,VWS V14.01,2013-02-10 07:17:00,
2013-02-09 23:18:00,43.1,38.6,30.05,ESE,122,0.0,0.0,84,0.00,,,0.01,VWS V14.01,2013-02-10 07:18:00,
2013-02-09 23:19:00,43.1,38.6,30.05,ESE,121,0.0,0.0,84,0.00,,,0.01,VWS V14.01,2013-02-10 07:19:00,
2013-02-09 23:22:00,43.0,38.5,30.05,ESE,121,0.0,0.0,84,0.00,,,0.01,VWS V14.01,2013-02-10 07:22:00,
2013-02-09 23:23:00,43.0,38.8,30.05,ESE,121,0.0,0.0,85,0.00,,,0.01,VWS V14.01,2013-02-10 07:23:00,
2013-02-09 23:25:00,43.0,38.8,30.05,ESE,121,0.0,0.0,85,0.00,,,0.01,VWS V14.01,2013-02-10 07:25:00,
2013-02-09 23:28:00,43.1,38.9,30.05,ESE,121,0.0,0.0,85,0.00,,,0.01,VWS V14.01,2013-02-10 07:28:00,
2013-02-09 23:30:00,43.1,38.9,30.05,ESE,121,0.0,0.0,85,0.00,,,0.01,VWS V14.01,2013-02-10 07:30:00,
2013-02-09 23:33:00,43.1,38.9,30.05,ESE,121,0.0,0.0,85,0.00,,,0.01,VWS V14.01,2013-02-10 07:33:00,
2013-02-09 23:35:00,43.0,38.8,30.05,ESE,121,0.0,0.0,85,0.00,,,0.01,VWS V14.01,2013-02-10 07:35:00,
2013-02-09 23:36:00,43.0,38.8,30.05,ESE,121,0.0,0.0,85,0.00,,,0.01,VWS V14.01,2013-02-10 07:36:00,
2013-02-09 23:38:00,43.0,38.8,30.05,SE,124,0.0,0.0,85,0.00,,,0.01,VWS V14.01,2013-02-10 07:38:00,
2013-02-09 23:40:00,43.0,38.8,30.05,SE,124,0.0,0.0,85,0.00,,,0.01,VWS V14.01,2013-02-10 07:40:00,
2013-02-09 23:42:00,43.0,38.8,30.05,SE,124,0.0,0.0,85,0.00,,,0.01,VWS V14.01,2013-02-10 07:42:00,
2013-02-09 23:43:00,43.0,38.8,30.05,SE,124,0.0,0.0,85,0.00,,,0.01,VWS V14.01,2013-02-10 07:43:00,
2013-02-09 23:44:00,43.0,38.8,30.05,SE,124,0.0,0.0,85,0.00,,,0.01,VWS V14.01,2013-02-10 07:44:00,
2013-02-09 23:45:00,43.0,38.8,30.05,SE,124,0.0,0.0,85,0.00,,,0.01,VWS V14.01,2013-02-10 07:45:00,
2013-02-09 23:47:00,43.0,38.8,30.05,SE,124,0.0,0.0,85,0.00,,,0.01,VWS V14.01,2013-02-10 07:47:00,
2013-02-09 23:48:00,43.0,38.8,30.05,SE,124,0.0,0.0,85,0.00,,,0.01,VWS V14.01,2013-02-10 07:48:00,
2013-02-09 23:50:00,43.0,38.8,30.05,SE,124,0.0,0.0,85,0.00,,,0.01,VWS V14.01,2013-02-10 07:50:00,
2013-02-09 23:51:00,43.0,38.8,30.05,SE,124,0.0,0.0,85,0.00,,,0.01,VWS V14.01,2013-02-10 07:51:00,
2013-02-09 23:55:00,42.9,38.7,30.05,SE,124,0.0,0.0,85,0.00,,,0.01,VWS V14.01,2013-02-10 07:55:00,
2013-02-09 23:56:00,42.9,38.7,30.05,SE,124,0.0,0.0,85,0.00,,,0.01,VWS V14.01,2013-02-10 07:56:00,
2013-02-09 23:58:00,42.9,38.7,30.05,SE,124,0.0,0.0,85,0.00,,,0.01,VWS V14.01,2013-02-10 07:58:00,